<?xml version="1.0" encoding="UTF-8" standalone="no" ?>
<gpx xmlns="http://www.topografix.com/GPX/1/1" xmlns:xsi="http://www.w3.org/2001/XMLSchema-instance" xsi:schemaLocation="http://www.topografix.com/GPX/1/1 http://www.topografix.com/GPX/1/1/gpx.xsd" version="1.1" creator="VisuGPX - https://www.visugpx.com">
  <metadata>
    <name>Refuge du Merlet - Berlanche,Merlet,Passoire</name>
    <desc><![CDATA[Rando en 3j. avec 2 nuits au Refuge du Merlet.
J2 en aval dans l'optique de ramener du bois.
Orientations Est et Nord pour profiter des meilleures conditions de neige.
]]></desc>
  </metadata>
  <trk>
    <name><![CDATA[J1-Refuge du Merlet]]></name>
    <trkseg>
      <trkpt lat="45.31619" lon="6.25079">
        <ele>1042</ele>
        <time>2020-02-07T14:11:46.113Z</time>
      </trkpt>
      <trkpt lat="45.3161" lon="6.25075">
        <ele>1045</ele>
        <time>2020-02-07T14:12:14.113Z</time>
      </trkpt>
      <trkpt lat="45.31604" lon="6.25065">
        <ele>1054</ele>
        <time>2020-02-07T14:13:09.112Z</time>
      </trkpt>
      <trkpt lat="45.31606" lon="6.2505">
        <ele>1056</ele>
        <time>2020-02-07T14:13:29.109Z</time>
      </trkpt>
      <trkpt lat="45.31611" lon="6.25031">
        <ele>1058</ele>
        <time>2020-02-07T14:13:55.109Z</time>
      </trkpt>
      <trkpt lat="45.31615" lon="6.25014">
        <ele>1058</ele>
        <time>2020-02-07T14:13:57.109Z</time>
      </trkpt>
      <trkpt lat="45.31621" lon="6.25">
        <ele>1059</ele>
        <time>2020-02-07T14:14:00.474Z</time>
      </trkpt>
      <trkpt lat="45.31627" lon="6.24985">
        <ele>1059</ele>
        <time>2020-02-07T14:14:03.474Z</time>
      </trkpt>
      <trkpt lat="45.31629" lon="6.24968">
        <ele>1060</ele>
        <time>2020-02-07T14:14:08.474Z</time>
      </trkpt>
      <trkpt lat="45.31635" lon="6.24953">
        <ele>1061</ele>
        <time>2020-02-07T14:14:12.474Z</time>
      </trkpt>
      <trkpt lat="45.31642" lon="6.24943">
        <ele>1061</ele>
        <time>2020-02-07T14:14:18.474Z</time>
      </trkpt>
      <trkpt lat="45.31647" lon="6.24931">
        <ele>1063</ele>
        <time>2020-02-07T14:14:25.474Z</time>
      </trkpt>
      <trkpt lat="45.31652" lon="6.2492">
        <ele>1064</ele>
        <time>2020-02-07T14:14:37.474Z</time>
      </trkpt>
      <trkpt lat="45.31656" lon="6.24905">
        <ele>1065</ele>
        <time>2020-02-07T14:14:44.474Z</time>
      </trkpt>
      <trkpt lat="45.31662" lon="6.24892">
        <ele>1066.5142821396</ele>
        <time>2020-02-07T14:14:57.474Z</time>
      </trkpt>
      <trkpt lat="45.31669" lon="6.24884">
        <ele>1068</ele>
        <time>2020-02-07T14:15:09.474Z</time>
      </trkpt>
      <trkpt lat="45.31673" lon="6.24871">
        <ele>1069</ele>
        <time>2020-02-07T14:15:17.462Z</time>
      </trkpt>
      <trkpt lat="45.31675" lon="6.24858">
        <ele>1072</ele>
        <time>2020-02-07T14:15:36.474Z</time>
      </trkpt>
      <trkpt lat="45.31681" lon="6.24846">
        <ele>1074</ele>
        <time>2020-02-07T14:15:47.462Z</time>
      </trkpt>
      <trkpt lat="45.31679" lon="6.24833">
        <ele>1076</ele>
        <time>2020-02-07T14:16:06.474Z</time>
      </trkpt>
      <trkpt lat="45.31689" lon="6.24829">
        <ele>1077.6839936</ele>
        <time>2020-02-07T14:16:18.474Z</time>
      </trkpt>
      <trkpt lat="45.31688" lon="6.24816">
        <ele>1079</ele>
        <time>2020-02-07T14:16:32.474Z</time>
      </trkpt>
      <trkpt lat="45.31692" lon="6.24803">
        <ele>1080</ele>
        <time>2020-02-07T14:16:42.474Z</time>
      </trkpt>
      <trkpt lat="45.31688" lon="6.2479">
        <ele>1083</ele>
        <time>2020-02-07T14:17:28.474Z</time>
      </trkpt>
      <trkpt lat="45.31696" lon="6.24782">
        <ele>1085.510445423</ele>
        <time>2020-02-07T14:17:42.474Z</time>
      </trkpt>
      <trkpt lat="45.31704" lon="6.24776">
        <ele>1087</ele>
        <time>2020-02-07T14:18:18.462Z</time>
      </trkpt>
      <trkpt lat="45.31706" lon="6.24763">
        <ele>1089</ele>
        <time>2020-02-07T14:18:42.462Z</time>
      </trkpt>
      <trkpt lat="45.31714" lon="6.24747">
        <ele>1091</ele>
        <time>2020-02-07T14:18:50.474Z</time>
      </trkpt>
      <trkpt lat="45.31712" lon="6.24735">
        <ele>1093</ele>
        <time>2020-02-07T14:18:58.474Z</time>
      </trkpt>
      <trkpt lat="45.31717" lon="6.24724">
        <ele>1095</ele>
        <time>2020-02-07T14:19:12.474Z</time>
      </trkpt>
      <trkpt lat="45.31723" lon="6.24714">
        <ele>1097.542026082</ele>
        <time>2020-02-07T14:19:22.474Z</time>
      </trkpt>
      <trkpt lat="45.31721" lon="6.24702">
        <ele>1100</ele>
        <time>2020-02-07T14:19:39.474Z</time>
      </trkpt>
      <trkpt lat="45.31731" lon="6.24704">
        <ele>1101</ele>
        <time>2020-02-07T14:20:07.474Z</time>
      </trkpt>
      <trkpt lat="45.31737" lon="6.24692">
        <ele>1102</ele>
        <time>2020-02-07T14:20:30.474Z</time>
      </trkpt>
      <trkpt lat="45.31737" lon="6.24679">
        <ele>1102</ele>
        <time>2020-02-07T14:20:40.474Z</time>
      </trkpt>
      <trkpt lat="45.31738" lon="6.24666">
        <ele>1108.6839936</ele>
        <time>2020-02-07T14:21:41.474Z</time>
      </trkpt>
      <trkpt lat="45.31744" lon="6.24656">
        <ele>1110</ele>
        <time>2020-02-07T14:21:52.474Z</time>
      </trkpt>
      <trkpt lat="45.31752" lon="6.24648">
        <ele>1111</ele>
        <time>2020-02-07T14:22:02.474Z</time>
      </trkpt>
      <trkpt lat="45.31759" lon="6.2464">
        <ele>1113</ele>
        <time>2020-02-07T14:22:18.474Z</time>
      </trkpt>
      <trkpt lat="45.31767" lon="6.24635">
        <ele>1115</ele>
        <time>2020-02-07T14:22:33.474Z</time>
      </trkpt>
      <trkpt lat="45.31777" lon="6.24631">
        <ele>1118</ele>
        <time>2020-02-07T14:22:45.474Z</time>
      </trkpt>
      <trkpt lat="45.31778" lon="6.24616">
        <ele>1119</ele>
        <time>2020-02-07T14:22:57.474Z</time>
      </trkpt>
      <trkpt lat="45.31782" lon="6.24604">
        <ele>1122.6839936</ele>
        <time>2020-02-07T14:23:15.474Z</time>
      </trkpt>
      <trkpt lat="45.31783" lon="6.24591">
        <ele>1125</ele>
        <time>2020-02-07T14:23:32.474Z</time>
      </trkpt>
      <trkpt lat="45.31788" lon="6.24579">
        <ele>1127</ele>
        <time>2020-02-07T14:24:02.474Z</time>
      </trkpt>
      <trkpt lat="45.3179" lon="6.24565">
        <ele>1128</ele>
        <time>2020-02-07T14:24:16.474Z</time>
      </trkpt>
      <trkpt lat="45.31792" lon="6.24552">
        <ele>1130</ele>
        <time>2020-02-07T14:24:33.474Z</time>
      </trkpt>
      <trkpt lat="45.318" lon="6.24541">
        <ele>1132</ele>
        <time>2020-02-07T14:24:41.474Z</time>
      </trkpt>
      <trkpt lat="45.31801" lon="6.24529">
        <ele>1135</ele>
        <time>2020-02-07T14:25:03.474Z</time>
      </trkpt>
      <trkpt lat="45.31806" lon="6.24516">
        <ele>1136.6839936</ele>
        <time>2020-02-07T14:25:14.474Z</time>
      </trkpt>
      <trkpt lat="45.31808" lon="6.24504">
        <ele>1139</ele>
        <time>2020-02-07T14:25:26.474Z</time>
      </trkpt>
      <trkpt lat="45.31815" lon="6.24493">
        <ele>1142</ele>
        <time>2020-02-07T14:25:46.474Z</time>
      </trkpt>
      <trkpt lat="45.31822" lon="6.24483">
        <ele>1143</ele>
        <time>2020-02-07T14:25:58.474Z</time>
      </trkpt>
      <trkpt lat="45.31825" lon="6.24471">
        <ele>1145</ele>
        <time>2020-02-07T14:26:10.474Z</time>
      </trkpt>
      <trkpt lat="45.31825" lon="6.24457">
        <ele>1146</ele>
        <time>2020-02-07T14:26:16.474Z</time>
      </trkpt>
      <trkpt lat="45.31834" lon="6.24451">
        <ele>1148</ele>
        <time>2020-02-07T14:26:27.474Z</time>
      </trkpt>
      <trkpt lat="45.31842" lon="6.24447">
        <ele>1153</ele>
        <time>2020-02-07T14:26:56.474Z</time>
      </trkpt>
      <trkpt lat="45.31852" lon="6.24442">
        <ele>1155</ele>
        <time>2020-02-07T14:27:09.474Z</time>
      </trkpt>
      <trkpt lat="45.31855" lon="6.2443">
        <ele>1158</ele>
        <time>2020-02-07T14:27:25.474Z</time>
      </trkpt>
      <trkpt lat="45.31865" lon="6.24428">
        <ele>1159</ele>
        <time>2020-02-07T14:27:56.474Z</time>
      </trkpt>
      <trkpt lat="45.3187" lon="6.24417">
        <ele>1163</ele>
        <time>2020-02-07T14:28:21.474Z</time>
      </trkpt>
      <trkpt lat="45.31873" lon="6.24404">
        <ele>1167</ele>
        <time>2020-02-07T14:29:25.474Z</time>
      </trkpt>
      <trkpt lat="45.31883" lon="6.24402">
        <ele>1169</ele>
        <time>2020-02-07T14:29:39.474Z</time>
      </trkpt>
      <trkpt lat="45.31887" lon="6.24389">
        <ele>1172</ele>
        <time>2020-02-07T14:29:51.474Z</time>
      </trkpt>
      <trkpt lat="45.31896" lon="6.24383">
        <ele>1176</ele>
        <time>2020-02-07T14:30:15.474Z</time>
      </trkpt>
      <trkpt lat="45.31901" lon="6.24372">
        <ele>1177</ele>
        <time>2020-02-07T14:30:24.474Z</time>
      </trkpt>
      <trkpt lat="45.31906" lon="6.24361">
        <ele>1179</ele>
        <time>2020-02-07T14:30:30.474Z</time>
      </trkpt>
      <trkpt lat="45.31912" lon="6.24351">
        <ele>1182</ele>
        <time>2020-02-07T14:30:44.474Z</time>
      </trkpt>
      <trkpt lat="45.31916" lon="6.24338">
        <ele>1183</ele>
        <time>2020-02-07T14:30:53.474Z</time>
      </trkpt>
      <trkpt lat="45.31919" lon="6.24324">
        <ele>1183</ele>
        <time>2020-02-07T14:31:01.474Z</time>
      </trkpt>
      <trkpt lat="45.31926" lon="6.24316">
        <ele>1186</ele>
        <time>2020-02-07T14:31:16.472Z</time>
      </trkpt>
      <trkpt lat="45.31933" lon="6.24304">
        <ele>1188</ele>
        <time>2020-02-07T14:31:30.474Z</time>
      </trkpt>
      <trkpt lat="45.31937" lon="6.24292">
        <ele>1190</ele>
        <time>2020-02-07T14:31:45.464Z</time>
      </trkpt>
      <trkpt lat="45.31941" lon="6.2428">
        <ele>1192</ele>
        <time>2020-02-07T14:31:59.474Z</time>
      </trkpt>
      <trkpt lat="45.3195" lon="6.24274">
        <ele>1193</ele>
        <time>2020-02-07T14:32:07.474Z</time>
      </trkpt>
      <trkpt lat="45.31958" lon="6.24269">
        <ele>1195</ele>
        <time>2020-02-07T14:32:23.462Z</time>
      </trkpt>
      <trkpt lat="45.31967" lon="6.24265">
        <ele>1198</ele>
        <time>2020-02-07T14:32:33.462Z</time>
      </trkpt>
      <trkpt lat="45.31976" lon="6.24258">
        <ele>1200</ele>
        <time>2020-02-07T14:32:50.474Z</time>
      </trkpt>
      <trkpt lat="45.31984" lon="6.24252">
        <ele>1201</ele>
        <time>2020-02-07T14:33:00.462Z</time>
      </trkpt>
      <trkpt lat="45.31992" lon="6.24243">
        <ele>1201</ele>
        <time>2020-02-07T14:33:12.464Z</time>
      </trkpt>
      <trkpt lat="45.32" lon="6.24238">
        <ele>1202</ele>
        <time>2020-02-07T14:33:24.474Z</time>
      </trkpt>
      <trkpt lat="45.32006" lon="6.24228">
        <ele>1205</ele>
        <time>2020-02-07T14:33:35.462Z</time>
      </trkpt>
      <trkpt lat="45.3201" lon="6.24216">
        <ele>1206</ele>
        <time>2020-02-07T14:33:45.464Z</time>
      </trkpt>
      <trkpt lat="45.32018" lon="6.2421">
        <ele>1208</ele>
        <time>2020-02-07T14:34:00.464Z</time>
      </trkpt>
      <trkpt lat="45.32025" lon="6.24201">
        <ele>1212</ele>
        <time>2020-02-07T14:34:19.460Z</time>
      </trkpt>
      <trkpt lat="45.32026" lon="6.24187">
        <ele>1212.6839936</ele>
        <time>2020-02-07T14:34:26.474Z</time>
      </trkpt>
      <trkpt lat="45.32027" lon="6.24174">
        <ele>1216</ele>
        <time>2020-02-07T14:34:39.474Z</time>
      </trkpt>
      <trkpt lat="45.32031" lon="6.24163">
        <ele>1219.5037630166</ele>
        <time>2020-02-07T14:35:02.460Z</time>
      </trkpt>
      <trkpt lat="45.32035" lon="6.24151">
        <ele>1223</ele>
        <time>2020-02-07T14:35:22.462Z</time>
      </trkpt>
      <trkpt lat="45.32043" lon="6.24144">
        <ele>1225.6618545546</ele>
        <time>2020-02-07T14:35:36.462Z</time>
      </trkpt>
      <trkpt lat="45.32049" lon="6.24134">
        <ele>1228</ele>
        <time>2020-02-07T14:35:51.464Z</time>
      </trkpt>
      <trkpt lat="45.32057" lon="6.24129">
        <ele>1229.6648600653</ele>
        <time>2020-02-07T14:35:59.578Z</time>
      </trkpt>
      <trkpt lat="45.32063" lon="6.24117">
        <ele>1231</ele>
        <time>2020-02-07T14:36:10.474Z</time>
      </trkpt>
      <trkpt lat="45.32062" lon="6.24103">
        <ele>1234</ele>
        <time>2020-02-07T14:36:27.474Z</time>
      </trkpt>
      <trkpt lat="45.32067" lon="6.24092">
        <ele>1236</ele>
        <time>2020-02-07T14:36:44.474Z</time>
      </trkpt>
      <trkpt lat="45.32073" lon="6.24082">
        <ele>1238</ele>
        <time>2020-02-07T14:36:57.474Z</time>
      </trkpt>
      <trkpt lat="45.32078" lon="6.24071">
        <ele>1240</ele>
        <time>2020-02-07T14:37:15.460Z</time>
      </trkpt>
      <trkpt lat="45.32087" lon="6.24063">
        <ele>1243</ele>
        <time>2020-02-07T14:37:31.460Z</time>
      </trkpt>
      <trkpt lat="45.32094" lon="6.24054">
        <ele>1246</ele>
        <time>2020-02-07T14:37:49.474Z</time>
      </trkpt>
      <trkpt lat="45.32101" lon="6.24045">
        <ele>1249</ele>
        <time>2020-02-07T14:38:03.460Z</time>
      </trkpt>
      <trkpt lat="45.32109" lon="6.24037">
        <ele>1252</ele>
        <time>2020-02-07T14:38:24.462Z</time>
      </trkpt>
      <trkpt lat="45.32115" lon="6.24026">
        <ele>1254</ele>
        <time>2020-02-07T14:38:37.474Z</time>
      </trkpt>
      <trkpt lat="45.32112" lon="6.24012">
        <ele>1255</ele>
        <time>2020-02-07T14:38:45.474Z</time>
      </trkpt>
      <trkpt lat="45.3212" lon="6.24005">
        <ele>1257</ele>
        <time>2020-02-07T14:38:59.460Z</time>
      </trkpt>
      <trkpt lat="45.32124" lon="6.23994">
        <ele>1260</ele>
        <time>2020-02-07T14:39:14.472Z</time>
      </trkpt>
      <trkpt lat="45.32129" lon="6.23981">
        <ele>1262.6839936</ele>
        <time>2020-02-07T14:39:31.474Z</time>
      </trkpt>
      <trkpt lat="45.32123" lon="6.23972">
        <ele>1265</ele>
        <time>2020-02-07T14:39:50.474Z</time>
      </trkpt>
      <trkpt lat="45.32128" lon="6.23961">
        <ele>1269</ele>
        <time>2020-02-07T14:40:14.474Z</time>
      </trkpt>
      <trkpt lat="45.32137" lon="6.23958">
        <ele>1272.5014949325</ele>
        <time>2020-02-07T14:40:30.462Z</time>
      </trkpt>
      <trkpt lat="45.32144" lon="6.23948">
        <ele>1275</ele>
        <time>2020-02-07T14:40:42.461Z</time>
      </trkpt>
      <trkpt lat="45.32149" lon="6.23937">
        <ele>1278</ele>
        <time>2020-02-07T14:41:00.574Z</time>
      </trkpt>
      <trkpt lat="45.32158" lon="6.23934">
        <ele>1283</ele>
        <time>2020-02-07T14:41:21.461Z</time>
      </trkpt>
      <trkpt lat="45.32158" lon="6.2392">
        <ele>1284</ele>
        <time>2020-02-07T14:41:33.474Z</time>
      </trkpt>
      <trkpt lat="45.32161" lon="6.23907">
        <ele>1290</ele>
        <time>2020-02-07T14:42:03.463Z</time>
      </trkpt>
      <trkpt lat="45.3217" lon="6.23901">
        <ele>1293</ele>
        <time>2020-02-07T14:42:14.476Z</time>
      </trkpt>
      <trkpt lat="45.32177" lon="6.23892">
        <ele>1296</ele>
        <time>2020-02-07T14:42:32.474Z</time>
      </trkpt>
      <trkpt lat="45.32185" lon="6.23886">
        <ele>1299</ele>
        <time>2020-02-07T14:42:50.461Z</time>
      </trkpt>
      <trkpt lat="45.32194" lon="6.23883">
        <ele>1302</ele>
        <time>2020-02-07T14:43:06.574Z</time>
      </trkpt>
      <trkpt lat="45.32203" lon="6.23877">
        <ele>1304</ele>
        <time>2020-02-07T14:43:22.461Z</time>
      </trkpt>
      <trkpt lat="45.32212" lon="6.23872">
        <ele>1307</ele>
        <time>2020-02-07T14:43:36.461Z</time>
      </trkpt>
      <trkpt lat="45.32219" lon="6.23863">
        <ele>1310</ele>
        <time>2020-02-07T14:43:51.461Z</time>
      </trkpt>
      <trkpt lat="45.32229" lon="6.23864">
        <ele>1311</ele>
        <time>2020-02-07T14:44:03.476Z</time>
      </trkpt>
      <trkpt lat="45.32238" lon="6.23864">
        <ele>1313</ele>
        <time>2020-02-07T14:44:19.461Z</time>
      </trkpt>
      <trkpt lat="45.32236" lon="6.23851">
        <ele>1315</ele>
        <time>2020-02-07T14:44:25.474Z</time>
      </trkpt>
      <trkpt lat="45.32246" lon="6.23849">
        <ele>1316</ele>
        <time>2020-02-07T14:44:36.474Z</time>
      </trkpt>
      <trkpt lat="45.32255" lon="6.23846">
        <ele>1317</ele>
        <time>2020-02-07T14:44:47.471Z</time>
      </trkpt>
      <trkpt lat="45.32264" lon="6.23848">
        <ele>1319</ele>
        <time>2020-02-07T14:44:56.474Z</time>
      </trkpt>
      <trkpt lat="45.32272" lon="6.2384">
        <ele>1321</ele>
        <time>2020-02-07T14:45:06.474Z</time>
      </trkpt>
      <trkpt lat="45.32279" lon="6.23832">
        <ele>1322</ele>
        <time>2020-02-07T14:45:19.476Z</time>
      </trkpt>
      <trkpt lat="45.32289" lon="6.23829">
        <ele>1324</ele>
        <time>2020-02-07T14:45:29.471Z</time>
      </trkpt>
      <trkpt lat="45.32296" lon="6.23821">
        <ele>1326</ele>
        <time>2020-02-07T14:45:43.462Z</time>
      </trkpt>
      <trkpt lat="45.32304" lon="6.23813">
        <ele>1328</ele>
        <time>2020-02-07T14:45:59.471Z</time>
      </trkpt>
      <trkpt lat="45.32313" lon="6.23809">
        <ele>1330</ele>
        <time>2020-02-07T14:46:17.476Z</time>
      </trkpt>
      <trkpt lat="45.3232" lon="6.23799">
        <ele>1332</ele>
        <time>2020-02-07T14:46:26.474Z</time>
      </trkpt>
      <trkpt lat="45.32327" lon="6.2379">
        <ele>1334</ele>
        <time>2020-02-07T14:46:38.474Z</time>
      </trkpt>
      <trkpt lat="45.32333" lon="6.23782">
        <ele>1335</ele>
        <time>2020-02-07T14:46:48.474Z</time>
      </trkpt>
      <trkpt lat="45.3234" lon="6.23772">
        <ele>1338.6808026479</ele>
        <time>2020-02-07T14:47:05.474Z</time>
      </trkpt>
      <trkpt lat="45.32348" lon="6.23765">
        <ele>1341</ele>
        <time>2020-02-07T14:47:18.474Z</time>
      </trkpt>
      <trkpt lat="45.32351" lon="6.23753">
        <ele>1346</ele>
        <time>2020-02-07T14:47:37.474Z</time>
      </trkpt>
      <trkpt lat="45.32359" lon="6.23744">
        <ele>1347</ele>
        <time>2020-02-07T14:48:47.474Z</time>
      </trkpt>
      <trkpt lat="45.32354" lon="6.23756">
        <ele>1346</ele>
        <time>2020-02-07T14:49:14.474Z</time>
      </trkpt>
      <trkpt lat="45.32363" lon="6.23756">
        <ele>1346</ele>
        <time>2020-02-07T14:49:19.474Z</time>
      </trkpt>
      <trkpt lat="45.32358" lon="6.23768">
        <ele>1347</ele>
        <time>2020-02-07T14:50:11.473Z</time>
      </trkpt>
      <trkpt lat="45.32366" lon="6.23754">
        <ele>1347</ele>
        <time>2020-02-07T14:50:22.474Z</time>
      </trkpt>
      <trkpt lat="45.32359" lon="6.23744">
        <ele>1347</ele>
        <time>2020-02-07T14:50:46.474Z</time>
      </trkpt>
      <trkpt lat="45.32356" lon="6.23732">
        <ele>1348</ele>
        <time>2020-02-07T14:54:55.474Z</time>
      </trkpt>
      <trkpt lat="45.3236" lon="6.23745">
        <ele>1348</ele>
        <time>2020-02-07T14:55:07.474Z</time>
      </trkpt>
      <trkpt lat="45.3237" lon="6.23742">
        <ele>1348</ele>
        <time>2020-02-07T14:55:41.474Z</time>
      </trkpt>
      <trkpt lat="45.3238" lon="6.23748">
        <ele>1348</ele>
        <time>2020-02-07T14:56:19.460Z</time>
      </trkpt>
      <trkpt lat="45.32371" lon="6.23741">
        <ele>1348</ele>
        <time>2020-02-07T14:56:31.460Z</time>
      </trkpt>
      <trkpt lat="45.32379" lon="6.23751">
        <ele>1348</ele>
        <time>2020-02-07T14:57:12.475Z</time>
      </trkpt>
      <trkpt lat="45.32386" lon="6.23742">
        <ele>1352</ele>
        <time>2020-02-07T14:57:40.474Z</time>
      </trkpt>
      <trkpt lat="45.3239" lon="6.2373">
        <ele>1354</ele>
        <time>2020-02-07T14:57:51.474Z</time>
      </trkpt>
      <trkpt lat="45.32394" lon="6.23717">
        <ele>1356.6839936</ele>
        <time>2020-02-07T14:58:04.474Z</time>
      </trkpt>
      <trkpt lat="45.32403" lon="6.23719">
        <ele>1359</ele>
        <time>2020-02-07T14:58:18.474Z</time>
      </trkpt>
      <trkpt lat="45.32412" lon="6.23713">
        <ele>1362</ele>
        <time>2020-02-07T14:58:43.463Z</time>
      </trkpt>
      <trkpt lat="45.32414" lon="6.23701">
        <ele>1364</ele>
        <time>2020-02-07T14:59:07.477Z</time>
      </trkpt>
      <trkpt lat="45.32418" lon="6.23689">
        <ele>1367</ele>
        <time>2020-02-07T14:59:20.471Z</time>
      </trkpt>
      <trkpt lat="45.32427" lon="6.23686">
        <ele>1370</ele>
        <time>2020-02-07T14:59:35.475Z</time>
      </trkpt>
      <trkpt lat="45.32434" lon="6.23676">
        <ele>1373</ele>
        <time>2020-02-07T14:59:57.461Z</time>
      </trkpt>
      <trkpt lat="45.32436" lon="6.23663">
        <ele>1376</ele>
        <time>2020-02-07T15:00:13.463Z</time>
      </trkpt>
      <trkpt lat="45.32441" lon="6.23652">
        <ele>1377</ele>
        <time>2020-02-07T15:00:25.476Z</time>
      </trkpt>
      <trkpt lat="45.32449" lon="6.23647">
        <ele>1380</ele>
        <time>2020-02-07T15:00:43.461Z</time>
      </trkpt>
      <trkpt lat="45.32459" lon="6.23651">
        <ele>1381.6809984</ele>
        <time>2020-02-07T15:01:15.471Z</time>
      </trkpt>
      <trkpt lat="45.32452" lon="6.23665">
        <ele>1383</ele>
        <time>2020-02-07T15:01:29.474Z</time>
      </trkpt>
      <trkpt lat="45.32462" lon="6.23671">
        <ele>1385</ele>
        <time>2020-02-07T15:01:42.474Z</time>
      </trkpt>
      <trkpt lat="45.32465" lon="6.23684">
        <ele>1388</ele>
        <time>2020-02-07T15:01:57.476Z</time>
      </trkpt>
      <trkpt lat="45.32473" lon="6.23678">
        <ele>1393</ele>
        <time>2020-02-07T15:02:29.464Z</time>
      </trkpt>
      <trkpt lat="45.32482" lon="6.23671">
        <ele>1396</ele>
        <time>2020-02-07T15:02:46.464Z</time>
      </trkpt>
      <trkpt lat="45.3249" lon="6.23664">
        <ele>1401</ele>
        <time>2020-02-07T15:03:06.464Z</time>
      </trkpt>
      <trkpt lat="45.32495" lon="6.23652">
        <ele>1403</ele>
        <time>2020-02-07T15:03:22.474Z</time>
      </trkpt>
      <trkpt lat="45.32493" lon="6.23638">
        <ele>1404</ele>
        <time>2020-02-07T15:03:31.476Z</time>
      </trkpt>
      <trkpt lat="45.32495" lon="6.23625">
        <ele>1406</ele>
        <time>2020-02-07T15:03:45.461Z</time>
      </trkpt>
      <trkpt lat="45.32496" lon="6.23613">
        <ele>1406</ele>
        <time>2020-02-07T15:03:56.476Z</time>
      </trkpt>
      <trkpt lat="45.32498" lon="6.236">
        <ele>1408</ele>
        <time>2020-02-07T15:04:11.474Z</time>
      </trkpt>
      <trkpt lat="45.325" lon="6.23587">
        <ele>1410</ele>
        <time>2020-02-07T15:04:25.474Z</time>
      </trkpt>
      <trkpt lat="45.325" lon="6.23574">
        <ele>1412</ele>
        <time>2020-02-07T15:04:40.474Z</time>
      </trkpt>
      <trkpt lat="45.32503" lon="6.23561">
        <ele>1415</ele>
        <time>2020-02-07T15:04:57.473Z</time>
      </trkpt>
      <trkpt lat="45.32508" lon="6.2355">
        <ele>1419</ele>
        <time>2020-02-07T15:05:21.464Z</time>
      </trkpt>
      <trkpt lat="45.3251" lon="6.23538">
        <ele>1424</ele>
        <time>2020-02-07T15:05:42.474Z</time>
      </trkpt>
      <trkpt lat="45.32516" lon="6.23528">
        <ele>1425</ele>
        <time>2020-02-07T15:05:52.476Z</time>
      </trkpt>
      <trkpt lat="45.32515" lon="6.23515">
        <ele>1429</ele>
        <time>2020-02-07T15:06:23.474Z</time>
      </trkpt>
      <trkpt lat="45.32512" lon="6.23502">
        <ele>1431</ele>
        <time>2020-02-07T15:07:01.474Z</time>
      </trkpt>
      <trkpt lat="45.32512" lon="6.23489">
        <ele>1433</ele>
        <time>2020-02-07T15:07:10.474Z</time>
      </trkpt>
      <trkpt lat="45.32509" lon="6.23477">
        <ele>1434.6839936</ele>
        <time>2020-02-07T15:07:27.474Z</time>
      </trkpt>
      <trkpt lat="45.32518" lon="6.23467">
        <ele>1439</ele>
        <time>2020-02-07T15:07:49.474Z</time>
      </trkpt>
      <trkpt lat="45.32527" lon="6.23464">
        <ele>1440</ele>
        <time>2020-02-07T15:07:55.474Z</time>
      </trkpt>
      <trkpt lat="45.32536" lon="6.23461">
        <ele>1443</ele>
        <time>2020-02-07T15:08:18.474Z</time>
      </trkpt>
      <trkpt lat="45.32544" lon="6.23468">
        <ele>1444.5376766965</ele>
        <time>2020-02-07T15:08:27.471Z</time>
      </trkpt>
      <trkpt lat="45.3255" lon="6.23458">
        <ele>1449</ele>
        <time>2020-02-07T15:08:59.474Z</time>
      </trkpt>
      <trkpt lat="45.32544" lon="6.23448">
        <ele>1451</ele>
        <time>2020-02-07T15:09:12.474Z</time>
      </trkpt>
      <trkpt lat="45.32543" lon="6.23435">
        <ele>1454</ele>
        <time>2020-02-07T15:09:29.474Z</time>
      </trkpt>
      <trkpt lat="45.32552" lon="6.23441">
        <ele>1455</ele>
        <time>2020-02-07T15:09:34.474Z</time>
      </trkpt>
      <trkpt lat="45.32561" lon="6.23445">
        <ele>1456</ele>
        <time>2020-02-07T15:09:40.474Z</time>
      </trkpt>
      <trkpt lat="45.32552" lon="6.23442">
        <ele>1456</ele>
        <time>2020-02-07T15:09:51.474Z</time>
      </trkpt>
      <trkpt lat="45.32543" lon="6.23439">
        <ele>1456</ele>
        <time>2020-02-07T15:09:52.474Z</time>
      </trkpt>
      <trkpt lat="45.32553" lon="6.23436">
        <ele>1457</ele>
        <time>2020-02-07T15:10:04.474Z</time>
      </trkpt>
      <trkpt lat="45.32563" lon="6.23437">
        <ele>1459</ele>
        <time>2020-02-07T15:10:15.474Z</time>
      </trkpt>
      <trkpt lat="45.32573" lon="6.23435">
        <ele>1461</ele>
        <time>2020-02-07T15:10:22.474Z</time>
      </trkpt>
      <trkpt lat="45.32569" lon="6.23423">
        <ele>1465</ele>
        <time>2020-02-07T15:10:41.474Z</time>
      </trkpt>
      <trkpt lat="45.32577" lon="6.23418">
        <ele>1469</ele>
        <time>2020-02-07T15:11:00.474Z</time>
      </trkpt>
      <trkpt lat="45.32588" lon="6.2342">
        <ele>1471</ele>
        <time>2020-02-07T15:11:14.573Z</time>
      </trkpt>
      <trkpt lat="45.32597" lon="6.23425">
        <ele>1471.5435852834</ele>
        <time>2020-02-07T15:11:22.474Z</time>
      </trkpt>
      <trkpt lat="45.32596" lon="6.23411">
        <ele>1480</ele>
        <time>2020-02-07T15:12:27.474Z</time>
      </trkpt>
      <trkpt lat="45.32587" lon="6.23406">
        <ele>1483</ele>
        <time>2020-02-07T15:13:04.461Z</time>
      </trkpt>
      <trkpt lat="45.32584" lon="6.23393">
        <ele>1482.6839936</ele>
        <time>2020-02-07T15:14:13.474Z</time>
      </trkpt>
      <trkpt lat="45.32588" lon="6.2338">
        <ele>1483</ele>
        <time>2020-02-07T15:14:26.474Z</time>
      </trkpt>
      <trkpt lat="45.32579" lon="6.23375">
        <ele>1483</ele>
        <time>2020-02-07T15:14:52.474Z</time>
      </trkpt>
      <trkpt lat="45.32569" lon="6.23373">
        <ele>1483</ele>
        <time>2020-02-07T15:15:02.474Z</time>
      </trkpt>
      <trkpt lat="45.32561" lon="6.23366">
        <ele>1484</ele>
        <time>2020-02-07T15:15:13.474Z</time>
      </trkpt>
      <trkpt lat="45.32565" lon="6.23353">
        <ele>1486</ele>
        <time>2020-02-07T15:15:28.474Z</time>
      </trkpt>
      <trkpt lat="45.32561" lon="6.23338">
        <ele>1487</ele>
        <time>2020-02-07T15:15:40.578Z</time>
      </trkpt>
      <trkpt lat="45.32564" lon="6.23323">
        <ele>1487</ele>
        <time>2020-02-07T15:15:55.474Z</time>
      </trkpt>
      <trkpt lat="45.32566" lon="6.2331">
        <ele>1488</ele>
        <time>2020-02-07T15:16:05.474Z</time>
      </trkpt>
      <trkpt lat="45.32567" lon="6.23297">
        <ele>1489</ele>
        <time>2020-02-07T15:16:16.474Z</time>
      </trkpt>
      <trkpt lat="45.32559" lon="6.23288">
        <ele>1491</ele>
        <time>2020-02-07T15:16:23.474Z</time>
      </trkpt>
      <trkpt lat="45.32557" lon="6.23275">
        <ele>1491</ele>
        <time>2020-02-07T15:16:30.474Z</time>
      </trkpt>
      <trkpt lat="45.3255" lon="6.23267">
        <ele>1491</ele>
        <time>2020-02-07T15:16:36.474Z</time>
      </trkpt>
      <trkpt lat="45.32546" lon="6.23255">
        <ele>1492</ele>
        <time>2020-02-07T15:16:41.474Z</time>
      </trkpt>
      <trkpt lat="45.32555" lon="6.23255">
        <ele>1492</ele>
        <time>2020-02-07T15:16:51.464Z</time>
      </trkpt>
      <trkpt lat="45.32548" lon="6.23247">
        <ele>1493</ele>
        <time>2020-02-07T15:17:03.474Z</time>
      </trkpt>
      <trkpt lat="45.32545" lon="6.23233">
        <ele>1494</ele>
        <time>2020-02-07T15:17:17.474Z</time>
      </trkpt>
      <trkpt lat="45.32553" lon="6.23226">
        <ele>1496</ele>
        <time>2020-02-07T15:17:31.474Z</time>
      </trkpt>
      <trkpt lat="45.3255" lon="6.2321">
        <ele>1498</ele>
        <time>2020-02-07T15:17:51.474Z</time>
      </trkpt>
      <trkpt lat="45.32542" lon="6.23203">
        <ele>1499</ele>
        <time>2020-02-07T15:18:11.474Z</time>
      </trkpt>
      <trkpt lat="45.32535" lon="6.23189">
        <ele>1502</ele>
        <time>2020-02-07T15:18:31.474Z</time>
      </trkpt>
      <trkpt lat="45.32528" lon="6.2318">
        <ele>1502.6839936</ele>
        <time>2020-02-07T15:18:41.474Z</time>
      </trkpt>
      <trkpt lat="45.3253" lon="6.23167">
        <ele>1503</ele>
        <time>2020-02-07T15:18:56.579Z</time>
      </trkpt>
      <trkpt lat="45.32537" lon="6.23159">
        <ele>1504</ele>
        <time>2020-02-07T15:19:02.460Z</time>
      </trkpt>
      <trkpt lat="45.32547" lon="6.2316">
        <ele>1505</ele>
        <time>2020-02-07T15:19:10.473Z</time>
      </trkpt>
      <trkpt lat="45.32556" lon="6.23165">
        <ele>1507</ele>
        <time>2020-02-07T15:19:27.460Z</time>
      </trkpt>
      <trkpt lat="45.32547" lon="6.23164">
        <ele>1510</ele>
        <time>2020-02-07T15:19:48.474Z</time>
      </trkpt>
      <trkpt lat="45.32544" lon="6.23151">
        <ele>1510</ele>
        <time>2020-02-07T15:20:03.474Z</time>
      </trkpt>
      <trkpt lat="45.32541" lon="6.23136">
        <ele>1513</ele>
        <time>2020-02-07T15:20:25.459Z</time>
      </trkpt>
      <trkpt lat="45.32541" lon="6.23122">
        <ele>1514</ele>
        <time>2020-02-07T15:20:39.464Z</time>
      </trkpt>
      <trkpt lat="45.32533" lon="6.23114">
        <ele>1514</ele>
        <time>2020-02-07T15:20:47.464Z</time>
      </trkpt>
      <trkpt lat="45.32526" lon="6.23104">
        <ele>1515</ele>
        <time>2020-02-07T15:20:58.464Z</time>
      </trkpt>
      <trkpt lat="45.32522" lon="6.23091">
        <ele>1517</ele>
        <time>2020-02-07T15:21:13.574Z</time>
      </trkpt>
      <trkpt lat="45.3252" lon="6.23078">
        <ele>1518</ele>
        <time>2020-02-07T15:21:25.464Z</time>
      </trkpt>
      <trkpt lat="45.32517" lon="6.23065">
        <ele>1519</ele>
        <time>2020-02-07T15:21:44.464Z</time>
      </trkpt>
      <trkpt lat="45.3251" lon="6.23055">
        <ele>1521</ele>
        <time>2020-02-07T15:22:00.474Z</time>
      </trkpt>
      <trkpt lat="45.32508" lon="6.23041">
        <ele>1522.4356656014</ele>
        <time>2020-02-07T15:22:17.474Z</time>
      </trkpt>
      <trkpt lat="45.32499" lon="6.23033">
        <ele>1525</ele>
        <time>2020-02-07T15:22:32.474Z</time>
      </trkpt>
      <trkpt lat="45.32491" lon="6.23026">
        <ele>1526</ele>
        <time>2020-02-07T15:22:44.474Z</time>
      </trkpt>
      <trkpt lat="45.32487" lon="6.23013">
        <ele>1526</ele>
        <time>2020-02-07T15:22:49.474Z</time>
      </trkpt>
      <trkpt lat="45.32477" lon="6.23013">
        <ele>1527</ele>
        <time>2020-02-07T15:22:57.474Z</time>
      </trkpt>
      <trkpt lat="45.32479" lon="6.23">
        <ele>1528</ele>
        <time>2020-02-07T15:23:17.464Z</time>
      </trkpt>
      <trkpt lat="45.32478" lon="6.23017">
        <ele>1528</ele>
        <time>2020-02-07T15:23:40.474Z</time>
      </trkpt>
      <trkpt lat="45.32475" lon="6.23032">
        <ele>1529</ele>
        <time>2020-02-07T15:24:05.474Z</time>
      </trkpt>
      <trkpt lat="45.32474" lon="6.23047">
        <ele>1530</ele>
        <time>2020-02-07T15:24:16.474Z</time>
      </trkpt>
      <trkpt lat="45.32463" lon="6.23043">
        <ele>1532</ele>
        <time>2020-02-07T15:24:36.474Z</time>
      </trkpt>
      <trkpt lat="45.32465" lon="6.23031">
        <ele>1533</ele>
        <time>2020-02-07T15:24:46.460Z</time>
      </trkpt>
      <trkpt lat="45.32463" lon="6.23017">
        <ele>1533.4970149111</ele>
        <time>2020-02-07T15:24:57.464Z</time>
      </trkpt>
      <trkpt lat="45.32459" lon="6.23005">
        <ele>1535</ele>
        <time>2020-02-07T15:25:10.474Z</time>
      </trkpt>
      <trkpt lat="45.32456" lon="6.2299">
        <ele>1536</ele>
        <time>2020-02-07T15:25:20.460Z</time>
      </trkpt>
      <trkpt lat="45.32456" lon="6.22976">
        <ele>1537</ele>
        <time>2020-02-07T15:25:33.470Z</time>
      </trkpt>
      <trkpt lat="45.32449" lon="6.22963">
        <ele>1537</ele>
        <time>2020-02-07T15:25:45.474Z</time>
      </trkpt>
      <trkpt lat="45.32453" lon="6.2295">
        <ele>1539.5150328181</ele>
        <time>2020-02-07T15:26:04.475Z</time>
      </trkpt>
      <trkpt lat="45.32451" lon="6.22936">
        <ele>1541</ele>
        <time>2020-02-07T15:26:18.474Z</time>
      </trkpt>
      <trkpt lat="45.32451" lon="6.22922">
        <ele>1541.6700032</ele>
        <time>2020-02-07T15:26:28.460Z</time>
      </trkpt>
      <trkpt lat="45.32449" lon="6.22909">
        <ele>1544</ele>
        <time>2020-02-07T15:26:41.460Z</time>
      </trkpt>
      <trkpt lat="45.32446" lon="6.22895">
        <ele>1546</ele>
        <time>2020-02-07T15:26:51.459Z</time>
      </trkpt>
      <trkpt lat="45.32445" lon="6.22882">
        <ele>1546.4999952239</ele>
        <time>2020-02-07T15:27:01.460Z</time>
      </trkpt>
      <trkpt lat="45.3245" lon="6.2287">
        <ele>1548</ele>
        <time>2020-02-07T15:27:14.470Z</time>
      </trkpt>
      <trkpt lat="45.3245" lon="6.22855">
        <ele>1550</ele>
        <time>2020-02-07T15:27:31.474Z</time>
      </trkpt>
      <trkpt lat="45.32444" lon="6.22844">
        <ele>1551</ele>
        <time>2020-02-07T15:27:39.460Z</time>
      </trkpt>
      <trkpt lat="45.32443" lon="6.22828">
        <ele>1551.6699904</ele>
        <time>2020-02-07T15:27:49.460Z</time>
      </trkpt>
      <trkpt lat="45.32437" lon="6.22817">
        <ele>1554</ele>
        <time>2020-02-07T15:28:09.460Z</time>
      </trkpt>
      <trkpt lat="45.32439" lon="6.22803">
        <ele>1554</ele>
        <time>2020-02-07T15:28:23.474Z</time>
      </trkpt>
      <trkpt lat="45.32439" lon="6.22789">
        <ele>1554</ele>
        <time>2020-02-07T15:28:30.460Z</time>
      </trkpt>
      <trkpt lat="45.32442" lon="6.22777">
        <ele>1555</ele>
        <time>2020-02-07T15:28:41.460Z</time>
      </trkpt>
      <trkpt lat="45.32446" lon="6.22763">
        <ele>1557</ele>
        <time>2020-02-07T15:28:55.474Z</time>
      </trkpt>
      <trkpt lat="45.32444" lon="6.2275">
        <ele>1558</ele>
        <time>2020-02-07T15:29:03.460Z</time>
      </trkpt>
      <trkpt lat="45.32446" lon="6.22737">
        <ele>1559</ele>
        <time>2020-02-07T15:29:12.464Z</time>
      </trkpt>
      <trkpt lat="45.32453" lon="6.22728">
        <ele>1561</ele>
        <time>2020-02-07T15:29:31.460Z</time>
      </trkpt>
      <trkpt lat="45.32444" lon="6.22732">
        <ele>1563</ele>
        <time>2020-02-07T15:29:48.474Z</time>
      </trkpt>
      <trkpt lat="45.32437" lon="6.22742">
        <ele>1564</ele>
        <time>2020-02-07T15:30:03.575Z</time>
      </trkpt>
      <trkpt lat="45.32437" lon="6.22755">
        <ele>1565</ele>
        <time>2020-02-07T15:30:11.474Z</time>
      </trkpt>
      <trkpt lat="45.32427" lon="6.22756">
        <ele>1566</ele>
        <time>2020-02-07T15:30:23.574Z</time>
      </trkpt>
      <trkpt lat="45.32417" lon="6.2276">
        <ele>1568</ele>
        <time>2020-02-07T15:30:34.474Z</time>
      </trkpt>
      <trkpt lat="45.32413" lon="6.22772">
        <ele>1568</ele>
        <time>2020-02-07T15:30:45.474Z</time>
      </trkpt>
      <trkpt lat="45.3241" lon="6.22784">
        <ele>1570</ele>
        <time>2020-02-07T15:30:59.474Z</time>
      </trkpt>
      <trkpt lat="45.32406" lon="6.22797">
        <ele>1572</ele>
        <time>2020-02-07T15:31:17.474Z</time>
      </trkpt>
      <trkpt lat="45.32409" lon="6.2281">
        <ele>1573</ele>
        <time>2020-02-07T15:31:29.474Z</time>
      </trkpt>
      <trkpt lat="45.32406" lon="6.22822">
        <ele>1575</ele>
        <time>2020-02-07T15:31:42.474Z</time>
      </trkpt>
      <trkpt lat="45.32409" lon="6.22834">
        <ele>1575</ele>
        <time>2020-02-07T15:31:51.461Z</time>
      </trkpt>
      <trkpt lat="45.32403" lon="6.22845">
        <ele>1576</ele>
        <time>2020-02-07T15:32:05.474Z</time>
      </trkpt>
      <trkpt lat="45.32396" lon="6.22856">
        <ele>1576</ele>
        <time>2020-02-07T15:32:16.463Z</time>
      </trkpt>
      <trkpt lat="45.32397" lon="6.22869">
        <ele>1577</ele>
        <time>2020-02-07T15:32:29.463Z</time>
      </trkpt>
      <trkpt lat="45.32399" lon="6.22882">
        <ele>1579</ele>
        <time>2020-02-07T15:32:39.463Z</time>
      </trkpt>
      <trkpt lat="45.32398" lon="6.22896">
        <ele>1581</ele>
        <time>2020-02-07T15:32:53.463Z</time>
      </trkpt>
      <trkpt lat="45.32398" lon="6.22909">
        <ele>1582</ele>
        <time>2020-02-07T15:33:07.463Z</time>
      </trkpt>
      <trkpt lat="45.32395" lon="6.22921">
        <ele>1585</ele>
        <time>2020-02-07T15:33:20.461Z</time>
      </trkpt>
      <trkpt lat="45.32394" lon="6.22934">
        <ele>1586</ele>
        <time>2020-02-07T15:33:31.461Z</time>
      </trkpt>
      <trkpt lat="45.32389" lon="6.22945">
        <ele>1586.6839936</ele>
        <time>2020-02-07T15:33:59.474Z</time>
      </trkpt>
      <trkpt lat="45.32387" lon="6.22957">
        <ele>1588</ele>
        <time>2020-02-07T15:34:08.461Z</time>
      </trkpt>
      <trkpt lat="45.32385" lon="6.22971">
        <ele>1589.6638252676</ele>
        <time>2020-02-07T15:34:19.474Z</time>
      </trkpt>
      <trkpt lat="45.32375" lon="6.22966">
        <ele>1590</ele>
        <time>2020-02-07T15:34:23.474Z</time>
      </trkpt>
      <trkpt lat="45.32374" lon="6.22951">
        <ele>1590</ele>
        <time>2020-02-07T15:34:29.462Z</time>
      </trkpt>
      <trkpt lat="45.32376" lon="6.22938">
        <ele>1590</ele>
        <time>2020-02-07T15:34:40.460Z</time>
      </trkpt>
      <trkpt lat="45.32378" lon="6.22924">
        <ele>1592</ele>
        <time>2020-02-07T15:34:54.460Z</time>
      </trkpt>
      <trkpt lat="45.32376" lon="6.22911">
        <ele>1594</ele>
        <time>2020-02-07T15:35:06.474Z</time>
      </trkpt>
      <trkpt lat="45.32375" lon="6.22897">
        <ele>1596</ele>
        <time>2020-02-07T15:35:26.474Z</time>
      </trkpt>
      <trkpt lat="45.3237" lon="6.22887">
        <ele>1596</ele>
        <time>2020-02-07T15:35:29.460Z</time>
      </trkpt>
      <trkpt lat="45.3237" lon="6.22874">
        <ele>1598</ele>
        <time>2020-02-07T15:35:42.460Z</time>
      </trkpt>
      <trkpt lat="45.32366" lon="6.2286">
        <ele>1598</ele>
        <time>2020-02-07T15:35:52.460Z</time>
      </trkpt>
      <trkpt lat="45.32366" lon="6.22847">
        <ele>1600</ele>
        <time>2020-02-07T15:36:07.461Z</time>
      </trkpt>
      <trkpt lat="45.32362" lon="6.22834">
        <ele>1601</ele>
        <time>2020-02-07T15:36:22.460Z</time>
      </trkpt>
      <trkpt lat="45.32358" lon="6.22819">
        <ele>1603</ele>
        <time>2020-02-07T15:36:44.575Z</time>
      </trkpt>
      <trkpt lat="45.3236" lon="6.22805">
        <ele>1604</ele>
        <time>2020-02-07T15:36:58.578Z</time>
      </trkpt>
      <trkpt lat="45.32356" lon="6.22794">
        <ele>1607</ele>
        <time>2020-02-07T15:37:13.474Z</time>
      </trkpt>
      <trkpt lat="45.32354" lon="6.22781">
        <ele>1608</ele>
        <time>2020-02-07T15:37:26.474Z</time>
      </trkpt>
      <trkpt lat="45.32354" lon="6.22765">
        <ele>1610</ele>
        <time>2020-02-07T15:37:42.474Z</time>
      </trkpt>
      <trkpt lat="45.32349" lon="6.22753">
        <ele>1611</ele>
        <time>2020-02-07T15:38:03.474Z</time>
      </trkpt>
      <trkpt lat="45.32349" lon="6.2274">
        <ele>1614</ele>
        <time>2020-02-07T15:38:39.476Z</time>
      </trkpt>
      <trkpt lat="45.32352" lon="6.22727">
        <ele>1615</ele>
        <time>2020-02-07T15:38:55.461Z</time>
      </trkpt>
      <trkpt lat="45.32347" lon="6.22715">
        <ele>1618</ele>
        <time>2020-02-07T15:39:14.474Z</time>
      </trkpt>
      <trkpt lat="45.32349" lon="6.22703">
        <ele>1619.3303035788</ele>
        <time>2020-02-07T15:39:23.463Z</time>
      </trkpt>
      <trkpt lat="45.32347" lon="6.22687">
        <ele>1620</ele>
        <time>2020-02-07T15:39:37.471Z</time>
      </trkpt>
      <trkpt lat="45.32353" lon="6.22678">
        <ele>1619</ele>
        <time>2020-02-07T15:39:53.461Z</time>
      </trkpt>
      <trkpt lat="45.32356" lon="6.22665">
        <ele>1619</ele>
        <time>2020-02-07T15:40:08.461Z</time>
      </trkpt>
      <trkpt lat="45.32359" lon="6.22652">
        <ele>1621</ele>
        <time>2020-02-07T15:40:21.473Z</time>
      </trkpt>
      <trkpt lat="45.32367" lon="6.22644">
        <ele>1623</ele>
        <time>2020-02-07T15:40:34.463Z</time>
      </trkpt>
      <trkpt lat="45.32373" lon="6.22634">
        <ele>1625</ele>
        <time>2020-02-07T15:40:47.463Z</time>
      </trkpt>
      <trkpt lat="45.32382" lon="6.22628">
        <ele>1626</ele>
        <time>2020-02-07T15:41:00.474Z</time>
      </trkpt>
      <trkpt lat="45.3239" lon="6.22623">
        <ele>1627</ele>
        <time>2020-02-07T15:41:15.474Z</time>
      </trkpt>
      <trkpt lat="45.324" lon="6.2262">
        <ele>1628</ele>
        <time>2020-02-07T15:41:24.464Z</time>
      </trkpt>
      <trkpt lat="45.32404" lon="6.22607">
        <ele>1630</ele>
        <time>2020-02-07T15:41:43.474Z</time>
      </trkpt>
      <trkpt lat="45.32401" lon="6.22595">
        <ele>1631</ele>
        <time>2020-02-07T15:41:51.474Z</time>
      </trkpt>
      <trkpt lat="45.3241" lon="6.22588">
        <ele>1632</ele>
        <time>2020-02-07T15:41:58.463Z</time>
      </trkpt>
      <trkpt lat="45.32413" lon="6.22577">
        <ele>1633</ele>
        <time>2020-02-07T15:42:09.462Z</time>
      </trkpt>
      <trkpt lat="45.32423" lon="6.22574">
        <ele>1635</ele>
        <time>2020-02-07T15:42:22.474Z</time>
      </trkpt>
      <trkpt lat="45.3243" lon="6.22567">
        <ele>1636</ele>
        <time>2020-02-07T15:42:37.463Z</time>
      </trkpt>
      <trkpt lat="45.32435" lon="6.22555">
        <ele>1638</ele>
        <time>2020-02-07T15:42:52.463Z</time>
      </trkpt>
      <trkpt lat="45.32443" lon="6.22547">
        <ele>1639.5060150521</ele>
        <time>2020-02-07T15:43:03.463Z</time>
      </trkpt>
      <trkpt lat="45.32448" lon="6.22536">
        <ele>1641</ele>
        <time>2020-02-07T15:43:21.463Z</time>
      </trkpt>
      <trkpt lat="45.32456" lon="6.22528">
        <ele>1643</ele>
        <time>2020-02-07T15:43:33.474Z</time>
      </trkpt>
      <trkpt lat="45.32465" lon="6.22533">
        <ele>1643</ele>
        <time>2020-02-07T15:43:41.463Z</time>
      </trkpt>
      <trkpt lat="45.32476" lon="6.22529">
        <ele>1645</ele>
        <time>2020-02-07T15:43:52.463Z</time>
      </trkpt>
      <trkpt lat="45.32484" lon="6.22522">
        <ele>1646</ele>
        <time>2020-02-07T15:44:03.462Z</time>
      </trkpt>
      <trkpt lat="45.32474" lon="6.22528">
        <ele>1648</ele>
        <time>2020-02-07T15:44:19.474Z</time>
      </trkpt>
      <trkpt lat="45.32465" lon="6.22524">
        <ele>1649</ele>
        <time>2020-02-07T15:44:27.474Z</time>
      </trkpt>
      <trkpt lat="45.32456" lon="6.22518">
        <ele>1649</ele>
        <time>2020-02-07T15:44:35.474Z</time>
      </trkpt>
      <trkpt lat="45.32446" lon="6.22519">
        <ele>1649</ele>
        <time>2020-02-07T15:44:43.474Z</time>
      </trkpt>
      <trkpt lat="45.32438" lon="6.22528">
        <ele>1652</ele>
        <time>2020-02-07T15:44:59.472Z</time>
      </trkpt>
      <trkpt lat="45.32428" lon="6.22521">
        <ele>1652.5089552666</ele>
        <time>2020-02-07T15:45:06.472Z</time>
      </trkpt>
      <trkpt lat="45.32418" lon="6.22521">
        <ele>1654</ele>
        <time>2020-02-07T15:45:30.462Z</time>
      </trkpt>
      <trkpt lat="45.32409" lon="6.22524">
        <ele>1655</ele>
        <time>2020-02-07T15:45:45.474Z</time>
      </trkpt>
      <trkpt lat="45.32401" lon="6.2253">
        <ele>1658</ele>
        <time>2020-02-07T15:45:58.463Z</time>
      </trkpt>
      <trkpt lat="45.32391" lon="6.22532">
        <ele>1659</ele>
        <time>2020-02-07T15:46:10.462Z</time>
      </trkpt>
      <trkpt lat="45.32387" lon="6.22521">
        <ele>1659</ele>
        <time>2020-02-07T15:46:17.462Z</time>
      </trkpt>
      <trkpt lat="45.32388" lon="6.22507">
        <ele>1661</ele>
        <time>2020-02-07T15:46:28.463Z</time>
      </trkpt>
      <trkpt lat="45.32394" lon="6.22496">
        <ele>1661</ele>
        <time>2020-02-07T15:46:40.462Z</time>
      </trkpt>
      <trkpt lat="45.32401" lon="6.22487">
        <ele>1663</ele>
        <time>2020-02-07T15:46:52.473Z</time>
      </trkpt>
      <trkpt lat="45.32398" lon="6.22474">
        <ele>1663</ele>
        <time>2020-02-07T15:47:01.463Z</time>
      </trkpt>
      <trkpt lat="45.32407" lon="6.22469">
        <ele>1664</ele>
        <time>2020-02-07T15:47:11.462Z</time>
      </trkpt>
      <trkpt lat="45.32411" lon="6.22457">
        <ele>1666</ele>
        <time>2020-02-07T15:47:24.462Z</time>
      </trkpt>
      <trkpt lat="45.3242" lon="6.22449">
        <ele>1667</ele>
        <time>2020-02-07T15:47:35.575Z</time>
      </trkpt>
      <trkpt lat="45.3243" lon="6.2245">
        <ele>1668</ele>
        <time>2020-02-07T15:47:44.474Z</time>
      </trkpt>
      <trkpt lat="45.32439" lon="6.22445">
        <ele>1668</ele>
        <time>2020-02-07T15:47:52.463Z</time>
      </trkpt>
      <trkpt lat="45.32448" lon="6.22445">
        <ele>1669</ele>
        <time>2020-02-07T15:48:03.474Z</time>
      </trkpt>
      <trkpt lat="45.32458" lon="6.22445">
        <ele>1670</ele>
        <time>2020-02-07T15:48:16.474Z</time>
      </trkpt>
      <trkpt lat="45.32446" lon="6.22454">
        <ele>1671</ele>
        <time>2020-02-07T15:48:52.473Z</time>
      </trkpt>
      <trkpt lat="45.32457" lon="6.22454">
        <ele>1671</ele>
        <time>2020-02-07T15:49:14.464Z</time>
      </trkpt>
      <trkpt lat="45.32467" lon="6.22445">
        <ele>1672</ele>
        <time>2020-02-07T15:50:01.464Z</time>
      </trkpt>
      <trkpt lat="45.32477" lon="6.2244">
        <ele>1672</ele>
        <time>2020-02-07T15:50:05.463Z</time>
      </trkpt>
      <trkpt lat="45.32468" lon="6.22443">
        <ele>1672</ele>
        <time>2020-02-07T15:50:10.463Z</time>
      </trkpt>
      <trkpt lat="45.32475" lon="6.22436">
        <ele>1672</ele>
        <time>2020-02-07T15:50:14.474Z</time>
      </trkpt>
      <trkpt lat="45.32469" lon="6.22451">
        <ele>1671.3160064</ele>
        <time>2020-02-07T15:50:17.474Z</time>
      </trkpt>
      <trkpt lat="45.3246" lon="6.2245">
        <ele>1671</ele>
        <time>2020-02-07T15:50:23.463Z</time>
      </trkpt>
      <trkpt lat="45.32452" lon="6.22459">
        <ele>1673</ele>
        <time>2020-02-07T15:51:39.474Z</time>
      </trkpt>
      <trkpt lat="45.32461" lon="6.22447">
        <ele>1673</ele>
        <time>2020-02-07T15:52:55.474Z</time>
      </trkpt>
      <trkpt lat="45.32448" lon="6.22449">
        <ele>1672</ele>
        <time>2020-02-07T15:53:19.474Z</time>
      </trkpt>
      <trkpt lat="45.32442" lon="6.2244">
        <ele>1674</ele>
        <time>2020-02-07T15:55:53.464Z</time>
      </trkpt>
      <trkpt lat="45.32432" lon="6.22439">
        <ele>1675.5014949325</ele>
        <time>2020-02-07T15:56:07.462Z</time>
      </trkpt>
      <trkpt lat="45.32424" lon="6.22443">
        <ele>1677</ele>
        <time>2020-02-07T15:56:20.463Z</time>
      </trkpt>
      <trkpt lat="45.32415" lon="6.22438">
        <ele>1678</ele>
        <time>2020-02-07T15:56:31.463Z</time>
      </trkpt>
      <trkpt lat="45.3242" lon="6.22426">
        <ele>1678</ele>
        <time>2020-02-07T15:56:44.473Z</time>
      </trkpt>
      <trkpt lat="45.32426" lon="6.22414">
        <ele>1681</ele>
        <time>2020-02-07T15:57:01.474Z</time>
      </trkpt>
      <trkpt lat="45.32434" lon="6.22406">
        <ele>1682.5014949325</ele>
        <time>2020-02-07T15:57:11.462Z</time>
      </trkpt>
      <trkpt lat="45.3244" lon="6.22396">
        <ele>1683</ele>
        <time>2020-02-07T15:57:24.463Z</time>
      </trkpt>
      <trkpt lat="45.32432" lon="6.22388">
        <ele>1687</ele>
        <time>2020-02-07T15:57:42.473Z</time>
      </trkpt>
      <trkpt lat="45.32424" lon="6.22392">
        <ele>1689</ele>
        <time>2020-02-07T15:57:54.463Z</time>
      </trkpt>
      <trkpt lat="45.32415" lon="6.22396">
        <ele>1689</ele>
        <time>2020-02-07T15:58:05.463Z</time>
      </trkpt>
      <trkpt lat="45.3242" lon="6.22383">
        <ele>1693</ele>
        <time>2020-02-07T15:58:24.474Z</time>
      </trkpt>
      <trkpt lat="45.32428" lon="6.22375">
        <ele>1693</ele>
        <time>2020-02-07T15:58:36.463Z</time>
      </trkpt>
      <trkpt lat="45.32437" lon="6.22368">
        <ele>1693.5260912312</ele>
        <time>2020-02-07T15:58:48.463Z</time>
      </trkpt>
      <trkpt lat="45.32441" lon="6.22356">
        <ele>1696</ele>
        <time>2020-02-07T15:59:02.474Z</time>
      </trkpt>
      <trkpt lat="45.32445" lon="6.22344">
        <ele>1698</ele>
        <time>2020-02-07T15:59:11.463Z</time>
      </trkpt>
      <trkpt lat="45.32453" lon="6.22337">
        <ele>1698</ele>
        <time>2020-02-07T15:59:19.474Z</time>
      </trkpt>
      <trkpt lat="45.32463" lon="6.22332">
        <ele>1698</ele>
        <time>2020-02-07T15:59:24.463Z</time>
      </trkpt>
      <trkpt lat="45.32472" lon="6.22325">
        <ele>1699.5302289122</ele>
        <time>2020-02-07T15:59:36.474Z</time>
      </trkpt>
      <trkpt lat="45.32482" lon="6.22325">
        <ele>1700</ele>
        <time>2020-02-07T15:59:47.474Z</time>
      </trkpt>
      <trkpt lat="45.32487" lon="6.22313">
        <ele>1702.672</ele>
        <time>2020-02-07T16:00:01.462Z</time>
      </trkpt>
      <trkpt lat="45.32481" lon="6.22303">
        <ele>1706</ele>
        <time>2020-02-07T16:00:47.462Z</time>
      </trkpt>
      <trkpt lat="45.32473" lon="6.22296">
        <ele>1707</ele>
        <time>2020-02-07T16:00:57.474Z</time>
      </trkpt>
      <trkpt lat="45.32469" lon="6.22285">
        <ele>1708</ele>
        <time>2020-02-07T16:01:08.463Z</time>
      </trkpt>
      <trkpt lat="45.32472" lon="6.22273">
        <ele>1709</ele>
        <time>2020-02-07T16:01:19.463Z</time>
      </trkpt>
      <trkpt lat="45.32475" lon="6.2226">
        <ele>1713</ele>
        <time>2020-02-07T16:01:37.473Z</time>
      </trkpt>
      <trkpt lat="45.32482" lon="6.2225">
        <ele>1715</ele>
        <time>2020-02-07T16:01:48.463Z</time>
      </trkpt>
      <trkpt lat="45.32489" lon="6.22242">
        <ele>1714</ele>
        <time>2020-02-07T16:02:41.474Z</time>
      </trkpt>
      <trkpt lat="45.3248" lon="6.22239">
        <ele>1715</ele>
        <time>2020-02-07T16:03:00.464Z</time>
      </trkpt>
      <trkpt lat="45.32489" lon="6.22242">
        <ele>1714</ele>
        <time>2020-02-07T16:04:00.474Z</time>
      </trkpt>
      <trkpt lat="45.32488" lon="6.22228">
        <ele>1716</ele>
        <time>2020-02-07T16:04:34.464Z</time>
      </trkpt>
      <trkpt lat="45.32489" lon="6.22216">
        <ele>1718</ele>
        <time>2020-02-07T16:04:45.474Z</time>
      </trkpt>
      <trkpt lat="45.32488" lon="6.22202">
        <ele>1722</ele>
        <time>2020-02-07T16:05:02.464Z</time>
      </trkpt>
      <trkpt lat="45.32492" lon="6.2219">
        <ele>1722.6739968</ele>
        <time>2020-02-07T16:05:36.464Z</time>
      </trkpt>
      <trkpt lat="45.32492" lon="6.22177">
        <ele>1725.5275381676</ele>
        <time>2020-02-07T16:05:46.464Z</time>
      </trkpt>
      <trkpt lat="45.32497" lon="6.22165">
        <ele>1728</ele>
        <time>2020-02-07T16:05:58.464Z</time>
      </trkpt>
      <trkpt lat="45.32499" lon="6.22152">
        <ele>1731</ele>
        <time>2020-02-07T16:06:15.474Z</time>
      </trkpt>
      <trkpt lat="45.32502" lon="6.22139">
        <ele>1735</ele>
        <time>2020-02-07T16:06:33.464Z</time>
      </trkpt>
      <trkpt lat="45.32504" lon="6.22125">
        <ele>1736.5067657306</ele>
        <time>2020-02-07T16:06:46.464Z</time>
      </trkpt>
      <trkpt lat="45.32506" lon="6.22112">
        <ele>1739</ele>
        <time>2020-02-07T16:07:02.463Z</time>
      </trkpt>
      <trkpt lat="45.32506" lon="6.22099">
        <ele>1741</ele>
        <time>2020-02-07T16:07:12.464Z</time>
      </trkpt>
      <trkpt lat="45.32507" lon="6.22086">
        <ele>1743</ele>
        <time>2020-02-07T16:07:22.463Z</time>
      </trkpt>
      <trkpt lat="45.32512" lon="6.22074">
        <ele>1743.6839936</ele>
        <time>2020-02-07T16:09:18.474Z</time>
      </trkpt>
      <trkpt lat="45.32503" lon="6.22072">
        <ele>1742</ele>
        <time>2020-02-07T16:10:44.463Z</time>
      </trkpt>
      <trkpt lat="45.32512" lon="6.22073">
        <ele>1742</ele>
        <time>2020-02-07T16:10:58.473Z</time>
      </trkpt>
      <trkpt lat="45.3251" lon="6.22059">
        <ele>1742</ele>
        <time>2020-02-07T16:12:02.463Z</time>
      </trkpt>
      <trkpt lat="45.32513" lon="6.22046">
        <ele>1742</ele>
        <time>2020-02-07T16:12:06.465Z</time>
      </trkpt>
      <trkpt lat="45.32515" lon="6.22031">
        <ele>1743</ele>
        <time>2020-02-07T16:12:10.465Z</time>
      </trkpt>
      <trkpt lat="45.32515" lon="6.22017">
        <ele>1742</ele>
        <time>2020-02-07T16:12:16.465Z</time>
      </trkpt>
      <trkpt lat="45.32516" lon="6.22004">
        <ele>1743</ele>
        <time>2020-02-07T16:12:24.460Z</time>
      </trkpt>
      <trkpt lat="45.32518" lon="6.21991">
        <ele>1744</ele>
        <time>2020-02-07T16:12:33.473Z</time>
      </trkpt>
      <trkpt lat="45.32523" lon="6.2198">
        <ele>1743</ele>
        <time>2020-02-07T16:12:41.463Z</time>
      </trkpt>
      <trkpt lat="45.32528" lon="6.21967">
        <ele>1744</ele>
        <time>2020-02-07T16:12:50.463Z</time>
      </trkpt>
      <trkpt lat="45.32532" lon="6.21956">
        <ele>1743</ele>
        <time>2020-02-07T16:12:58.473Z</time>
      </trkpt>
      <trkpt lat="45.32536" lon="6.21943">
        <ele>1743</ele>
        <time>2020-02-07T16:13:07.460Z</time>
      </trkpt>
      <trkpt lat="45.32538" lon="6.21929">
        <ele>1744</ele>
        <time>2020-02-07T16:13:16.463Z</time>
      </trkpt>
      <trkpt lat="45.32537" lon="6.21916">
        <ele>1744</ele>
        <time>2020-02-07T16:13:25.463Z</time>
      </trkpt>
      <trkpt lat="45.32535" lon="6.21902">
        <ele>1744</ele>
        <time>2020-02-07T16:13:35.460Z</time>
      </trkpt>
      <trkpt lat="45.32532" lon="6.2189">
        <ele>1745</ele>
        <time>2020-02-07T16:13:45.474Z</time>
      </trkpt>
      <trkpt lat="45.32532" lon="6.21876">
        <ele>1746</ele>
        <time>2020-02-07T16:13:55.463Z</time>
      </trkpt>
      <trkpt lat="45.32532" lon="6.21862">
        <ele>1746</ele>
        <time>2020-02-07T16:14:05.460Z</time>
      </trkpt>
      <trkpt lat="45.32531" lon="6.21849">
        <ele>1747</ele>
        <time>2020-02-07T16:14:17.463Z</time>
      </trkpt>
      <trkpt lat="45.32533" lon="6.21834">
        <ele>1749</ele>
        <time>2020-02-07T16:14:33.475Z</time>
      </trkpt>
      <trkpt lat="45.32532" lon="6.2182">
        <ele>1750</ele>
        <time>2020-02-07T16:14:50.465Z</time>
      </trkpt>
      <trkpt lat="45.32533" lon="6.21808">
        <ele>1751</ele>
        <time>2020-02-07T16:15:02.460Z</time>
      </trkpt>
      <trkpt lat="45.32535" lon="6.21795">
        <ele>1752</ele>
        <time>2020-02-07T16:15:14.460Z</time>
      </trkpt>
      <trkpt lat="45.32539" lon="6.21782">
        <ele>1754</ele>
        <time>2020-02-07T16:15:26.460Z</time>
      </trkpt>
      <trkpt lat="45.3254" lon="6.21769">
        <ele>1755.6729984</ele>
        <time>2020-02-07T16:15:37.463Z</time>
      </trkpt>
      <trkpt lat="45.32546" lon="6.21759">
        <ele>1757</ele>
        <time>2020-02-07T16:15:54.463Z</time>
      </trkpt>
      <trkpt lat="45.32553" lon="6.21752">
        <ele>1759.5022400107</ele>
        <time>2020-02-07T16:16:06.463Z</time>
      </trkpt>
      <trkpt lat="45.3256" lon="6.21743">
        <ele>1762</ele>
        <time>2020-02-07T16:16:18.472Z</time>
      </trkpt>
      <trkpt lat="45.32564" lon="6.21731">
        <ele>1764</ele>
        <time>2020-02-07T16:16:30.462Z</time>
      </trkpt>
      <trkpt lat="45.32568" lon="6.21719">
        <ele>1765</ele>
        <time>2020-02-07T16:16:42.460Z</time>
      </trkpt>
      <trkpt lat="45.32571" lon="6.21706">
        <ele>1767</ele>
        <time>2020-02-07T16:16:54.460Z</time>
      </trkpt>
      <trkpt lat="45.32566" lon="6.21694">
        <ele>1770</ele>
        <time>2020-02-07T16:17:40.462Z</time>
      </trkpt>
      <trkpt lat="45.32568" lon="6.21681">
        <ele>1771</ele>
        <time>2020-02-07T16:18:00.462Z</time>
      </trkpt>
      <trkpt lat="45.3257" lon="6.21668">
        <ele>1772</ele>
        <time>2020-02-07T16:18:10.462Z</time>
      </trkpt>
      <trkpt lat="45.32569" lon="6.21654">
        <ele>1773</ele>
        <time>2020-02-07T16:18:21.462Z</time>
      </trkpt>
      <trkpt lat="45.32571" lon="6.21641">
        <ele>1773</ele>
        <time>2020-02-07T16:18:31.462Z</time>
      </trkpt>
      <trkpt lat="45.3257" lon="6.21628">
        <ele>1773</ele>
        <time>2020-02-07T16:18:43.463Z</time>
      </trkpt>
      <trkpt lat="45.3257" lon="6.21614">
        <ele>1773</ele>
        <time>2020-02-07T16:18:52.472Z</time>
      </trkpt>
      <trkpt lat="45.32569" lon="6.21601">
        <ele>1773</ele>
        <time>2020-02-07T16:19:00.461Z</time>
      </trkpt>
      <trkpt lat="45.3257" lon="6.21588">
        <ele>1774</ele>
        <time>2020-02-07T16:19:11.461Z</time>
      </trkpt>
      <trkpt lat="45.32571" lon="6.21574">
        <ele>1776</ele>
        <time>2020-02-07T16:19:24.461Z</time>
      </trkpt>
      <trkpt lat="45.32572" lon="6.21561">
        <ele>1777</ele>
        <time>2020-02-07T16:19:35.462Z</time>
      </trkpt>
      <trkpt lat="45.32572" lon="6.21547">
        <ele>1777</ele>
        <time>2020-02-07T16:19:48.462Z</time>
      </trkpt>
      <trkpt lat="45.32573" lon="6.21533">
        <ele>1778</ele>
        <time>2020-02-07T16:20:00.462Z</time>
      </trkpt>
      <trkpt lat="45.32575" lon="6.2152">
        <ele>1778.6870016</ele>
        <time>2020-02-07T16:20:12.477Z</time>
      </trkpt>
      <trkpt lat="45.3258" lon="6.21508">
        <ele>1780</ele>
        <time>2020-02-07T16:20:23.461Z</time>
      </trkpt>
      <trkpt lat="45.32585" lon="6.21497">
        <ele>1781</ele>
        <time>2020-02-07T16:20:36.462Z</time>
      </trkpt>
      <trkpt lat="45.32586" lon="6.21484">
        <ele>1782</ele>
        <time>2020-02-07T16:20:47.472Z</time>
      </trkpt>
      <trkpt lat="45.32591" lon="6.2147">
        <ele>1784</ele>
        <time>2020-02-07T16:21:00.462Z</time>
      </trkpt>
      <trkpt lat="45.32593" lon="6.21458">
        <ele>1785.6710016</ele>
        <time>2020-02-07T16:21:15.461Z</time>
      </trkpt>
      <trkpt lat="45.32597" lon="6.21445">
        <ele>1788</ele>
        <time>2020-02-07T16:21:29.462Z</time>
      </trkpt>
      <trkpt lat="45.32602" lon="6.21434">
        <ele>1789.6752464958</ele>
        <time>2020-02-07T16:21:42.472Z</time>
      </trkpt>
      <trkpt lat="45.32607" lon="6.21423">
        <ele>1791</ele>
        <time>2020-02-07T16:21:54.462Z</time>
      </trkpt>
      <trkpt lat="45.32614" lon="6.21415">
        <ele>1793</ele>
        <time>2020-02-07T16:22:04.462Z</time>
      </trkpt>
      <trkpt lat="45.32622" lon="6.21406">
        <ele>1795</ele>
        <time>2020-02-07T16:22:14.462Z</time>
      </trkpt>
      <trkpt lat="45.32628" lon="6.21396">
        <ele>1795</ele>
        <time>2020-02-07T16:22:26.462Z</time>
      </trkpt>
      <trkpt lat="45.3263" lon="6.21381">
        <ele>1798</ele>
        <time>2020-02-07T16:22:38.462Z</time>
      </trkpt>
      <trkpt lat="45.32634" lon="6.21369">
        <ele>1798</ele>
        <time>2020-02-07T16:22:49.462Z</time>
      </trkpt>
      <trkpt lat="45.32635" lon="6.21356">
        <ele>1800</ele>
        <time>2020-02-07T16:23:00.461Z</time>
      </trkpt>
      <trkpt lat="45.32631" lon="6.21344">
        <ele>1803</ele>
        <time>2020-02-07T16:23:11.461Z</time>
      </trkpt>
      <trkpt lat="45.32628" lon="6.21332">
        <ele>1805</ele>
        <time>2020-02-07T16:23:22.472Z</time>
      </trkpt>
      <trkpt lat="45.32634" lon="6.2132">
        <ele>1808</ele>
        <time>2020-02-07T16:23:34.461Z</time>
      </trkpt>
      <trkpt lat="45.32639" lon="6.21308">
        <ele>1810.5122137106</ele>
        <time>2020-02-07T16:23:48.461Z</time>
      </trkpt>
      <trkpt lat="45.32643" lon="6.21296">
        <ele>1813</ele>
        <time>2020-02-07T16:24:00.462Z</time>
      </trkpt>
      <trkpt lat="45.32641" lon="6.21283">
        <ele>1816</ele>
        <time>2020-02-07T16:24:12.474Z</time>
      </trkpt>
      <trkpt lat="45.32641" lon="6.2127">
        <ele>1820</ele>
        <time>2020-02-07T16:24:27.461Z</time>
      </trkpt>
      <trkpt lat="45.32645" lon="6.21258">
        <ele>1823</ele>
        <time>2020-02-07T16:24:42.461Z</time>
      </trkpt>
      <trkpt lat="45.32645" lon="6.21245">
        <ele>1824.6710016</ele>
        <time>2020-02-07T16:24:54.461Z</time>
      </trkpt>
      <trkpt lat="45.32646" lon="6.21231">
        <ele>1827</ele>
        <time>2020-02-07T16:25:06.462Z</time>
      </trkpt>
      <trkpt lat="45.32648" lon="6.21219">
        <ele>1828</ele>
        <time>2020-02-07T16:25:16.461Z</time>
      </trkpt>
      <trkpt lat="45.3265" lon="6.21206">
        <ele>1831</ele>
        <time>2020-02-07T16:25:29.461Z</time>
      </trkpt>
      <trkpt lat="45.32653" lon="6.21194">
        <ele>1833</ele>
        <time>2020-02-07T16:25:41.461Z</time>
      </trkpt>
      <trkpt lat="45.32655" lon="6.21181">
        <ele>1834</ele>
        <time>2020-02-07T16:25:53.477Z</time>
      </trkpt>
      <trkpt lat="45.32659" lon="6.21167">
        <ele>1835.6710016</ele>
        <time>2020-02-07T16:26:04.461Z</time>
      </trkpt>
      <trkpt lat="45.32662" lon="6.21154">
        <ele>1838</ele>
        <time>2020-02-07T16:26:16.462Z</time>
      </trkpt>
      <trkpt lat="45.32661" lon="6.21141">
        <ele>1840</ele>
        <time>2020-02-07T16:26:29.461Z</time>
      </trkpt>
      <trkpt lat="45.32659" lon="6.21128">
        <ele>1843</ele>
        <time>2020-02-07T16:26:40.462Z</time>
      </trkpt>
      <trkpt lat="45.32659" lon="6.21115">
        <ele>1844</ele>
        <time>2020-02-07T16:26:50.462Z</time>
      </trkpt>
      <trkpt lat="45.3266" lon="6.21102">
        <ele>1845</ele>
        <time>2020-02-07T16:26:58.477Z</time>
      </trkpt>
      <trkpt lat="45.32658" lon="6.21087">
        <ele>1847</ele>
        <time>2020-02-07T16:27:07.461Z</time>
      </trkpt>
      <trkpt lat="45.32655" lon="6.21075">
        <ele>1846</ele>
        <time>2020-02-07T16:27:13.476Z</time>
      </trkpt>
      <trkpt lat="45.32655" lon="6.21062">
        <ele>1846</ele>
        <time>2020-02-07T16:27:21.461Z</time>
      </trkpt>
      <trkpt lat="45.32658" lon="6.21049">
        <ele>1846</ele>
        <time>2020-02-07T16:27:30.461Z</time>
      </trkpt>
      <trkpt lat="45.32661" lon="6.21036">
        <ele>1847</ele>
        <time>2020-02-07T16:27:38.471Z</time>
      </trkpt>
      <trkpt lat="45.32662" lon="6.21023">
        <ele>1848</ele>
        <time>2020-02-07T16:27:47.461Z</time>
      </trkpt>
      <trkpt lat="45.32666" lon="6.21011">
        <ele>1848.5231973584</ele>
        <time>2020-02-07T16:27:56.461Z</time>
      </trkpt>
      <trkpt lat="45.32671" lon="6.20997">
        <ele>1849</ele>
        <time>2020-02-07T16:28:05.464Z</time>
      </trkpt>
      <trkpt lat="45.32673" lon="6.20984">
        <ele>1850</ele>
        <time>2020-02-07T16:28:14.464Z</time>
      </trkpt>
      <trkpt lat="45.32675" lon="6.2097">
        <ele>1849</ele>
        <time>2020-02-07T16:28:22.461Z</time>
      </trkpt>
      <trkpt lat="45.3268" lon="6.20958">
        <ele>1849</ele>
        <time>2020-02-07T16:28:30.460Z</time>
      </trkpt>
      <trkpt lat="45.32681" lon="6.20945">
        <ele>1850</ele>
        <time>2020-02-07T16:28:38.474Z</time>
      </trkpt>
      <trkpt lat="45.32684" lon="6.20932">
        <ele>1850</ele>
        <time>2020-02-07T16:28:45.461Z</time>
      </trkpt>
      <trkpt lat="45.32687" lon="6.20919">
        <ele>1851</ele>
        <time>2020-02-07T16:28:52.461Z</time>
      </trkpt>
      <trkpt lat="45.3269" lon="6.20906">
        <ele>1851.6710016</ele>
        <time>2020-02-07T16:29:00.461Z</time>
      </trkpt>
      <trkpt lat="45.32692" lon="6.20893">
        <ele>1852.5011232303</ele>
        <time>2020-02-07T16:29:07.461Z</time>
      </trkpt>
      <trkpt lat="45.32693" lon="6.2088">
        <ele>1854</ele>
        <time>2020-02-07T16:29:14.462Z</time>
      </trkpt>
      <trkpt lat="45.32693" lon="6.20866">
        <ele>1855</ele>
        <time>2020-02-07T16:29:21.462Z</time>
      </trkpt>
      <trkpt lat="45.32693" lon="6.20852">
        <ele>1856.5122137106</ele>
        <time>2020-02-07T16:29:30.461Z</time>
      </trkpt>
      <trkpt lat="45.32695" lon="6.20838">
        <ele>1859</ele>
        <time>2020-02-07T16:29:40.462Z</time>
      </trkpt>
      <trkpt lat="45.32696" lon="6.20825">
        <ele>1861</ele>
        <time>2020-02-07T16:29:50.462Z</time>
      </trkpt>
      <trkpt lat="45.32698" lon="6.2081">
        <ele>1863</ele>
        <time>2020-02-07T16:30:00.462Z</time>
      </trkpt>
      <trkpt lat="45.327" lon="6.20797">
        <ele>1864</ele>
        <time>2020-02-07T16:30:09.461Z</time>
      </trkpt>
      <trkpt lat="45.327" lon="6.20783">
        <ele>1865</ele>
        <time>2020-02-07T16:30:19.461Z</time>
      </trkpt>
      <trkpt lat="45.32701" lon="6.20769">
        <ele>1867.6710016</ele>
        <time>2020-02-07T16:30:31.461Z</time>
      </trkpt>
      <trkpt lat="45.32705" lon="6.20758">
        <ele>1869</ele>
        <time>2020-02-07T16:30:40.462Z</time>
      </trkpt>
      <trkpt lat="45.32708" lon="6.20745">
        <ele>1870</ele>
        <time>2020-02-07T16:30:49.461Z</time>
      </trkpt>
      <trkpt lat="45.32713" lon="6.20734">
        <ele>1872</ele>
        <time>2020-02-07T16:30:58.477Z</time>
      </trkpt>
      <trkpt lat="45.32716" lon="6.20721">
        <ele>1871</ele>
        <time>2020-02-07T16:31:08.472Z</time>
      </trkpt>
      <trkpt lat="45.32719" lon="6.20709">
        <ele>1872</ele>
        <time>2020-02-07T16:31:17.462Z</time>
      </trkpt>
      <trkpt lat="45.32723" lon="6.20696">
        <ele>1874</ele>
        <time>2020-02-07T16:31:26.462Z</time>
      </trkpt>
      <trkpt lat="45.32728" lon="6.20684">
        <ele>1875</ele>
        <time>2020-02-07T16:31:36.461Z</time>
      </trkpt>
      <trkpt lat="45.32734" lon="6.20672">
        <ele>1876</ele>
        <time>2020-02-07T16:31:45.461Z</time>
      </trkpt>
      <trkpt lat="45.32741" lon="6.2066">
        <ele>1875</ele>
        <time>2020-02-07T16:31:51.461Z</time>
      </trkpt>
      <trkpt lat="45.32745" lon="6.20646">
        <ele>1873.672</ele>
        <time>2020-02-07T16:31:55.462Z</time>
      </trkpt>
      <trkpt lat="45.3275" lon="6.20634">
        <ele>1873</ele>
        <time>2020-02-07T16:32:00.461Z</time>
      </trkpt>
      <trkpt lat="45.32751" lon="6.20621">
        <ele>1872</ele>
        <time>2020-02-07T16:32:08.474Z</time>
      </trkpt>
      <trkpt lat="45.32754" lon="6.20608">
        <ele>1875</ele>
        <time>2020-02-07T16:32:18.476Z</time>
      </trkpt>
      <trkpt lat="45.32756" lon="6.20595">
        <ele>1878</ele>
        <time>2020-02-07T16:32:29.463Z</time>
      </trkpt>
      <trkpt lat="45.32756" lon="6.20581">
        <ele>1881</ele>
        <time>2020-02-07T16:32:39.461Z</time>
      </trkpt>
      <trkpt lat="45.32756" lon="6.20568">
        <ele>1882</ele>
        <time>2020-02-07T16:32:48.476Z</time>
      </trkpt>
      <trkpt lat="45.32755" lon="6.20554">
        <ele>1884</ele>
        <time>2020-02-07T16:32:57.461Z</time>
      </trkpt>
      <trkpt lat="45.32757" lon="6.20541">
        <ele>1885</ele>
        <time>2020-02-07T16:33:06.463Z</time>
      </trkpt>
      <trkpt lat="45.32759" lon="6.20527">
        <ele>1886</ele>
        <time>2020-02-07T16:33:15.463Z</time>
      </trkpt>
      <trkpt lat="45.32763" lon="6.20514">
        <ele>1887.6809984</ele>
        <time>2020-02-07T16:33:23.471Z</time>
      </trkpt>
      <trkpt lat="45.32764" lon="6.205">
        <ele>1889</ele>
        <time>2020-02-07T16:33:32.463Z</time>
      </trkpt>
      <trkpt lat="45.32765" lon="6.20488">
        <ele>1891</ele>
        <time>2020-02-07T16:33:40.461Z</time>
      </trkpt>
      <trkpt lat="45.32769" lon="6.20476">
        <ele>1892</ele>
        <time>2020-02-07T16:33:48.473Z</time>
      </trkpt>
      <trkpt lat="45.32769" lon="6.20463">
        <ele>1894</ele>
        <time>2020-02-07T16:33:59.463Z</time>
      </trkpt>
      <trkpt lat="45.32767" lon="6.2045">
        <ele>1897.6514558401</ele>
        <time>2020-02-07T16:34:11.461Z</time>
      </trkpt>
      <trkpt lat="45.32764" lon="6.20437">
        <ele>1899.6848495035</ele>
        <time>2020-02-07T16:34:23.478Z</time>
      </trkpt>
      <trkpt lat="45.32763" lon="6.20423">
        <ele>1902</ele>
        <time>2020-02-07T16:34:33.473Z</time>
      </trkpt>
      <trkpt lat="45.32761" lon="6.2041">
        <ele>1902</ele>
        <time>2020-02-07T16:34:41.474Z</time>
      </trkpt>
      <trkpt lat="45.32759" lon="6.20397">
        <ele>1903</ele>
        <time>2020-02-07T16:34:48.474Z</time>
      </trkpt>
      <trkpt lat="45.32758" lon="6.20384">
        <ele>1904</ele>
        <time>2020-02-07T16:34:56.474Z</time>
      </trkpt>
      <trkpt lat="45.32756" lon="6.2037">
        <ele>1904</ele>
        <time>2020-02-07T16:35:05.474Z</time>
      </trkpt>
      <trkpt lat="45.32755" lon="6.20357">
        <ele>1906</ele>
        <time>2020-02-07T16:35:14.473Z</time>
      </trkpt>
      <trkpt lat="45.32755" lon="6.20343">
        <ele>1907</ele>
        <time>2020-02-07T16:35:23.461Z</time>
      </trkpt>
      <trkpt lat="45.32753" lon="6.2033">
        <ele>1908</ele>
        <time>2020-02-07T16:35:33.461Z</time>
      </trkpt>
      <trkpt lat="45.32752" lon="6.20315">
        <ele>1910</ele>
        <time>2020-02-07T16:35:42.461Z</time>
      </trkpt>
      <trkpt lat="45.32757" lon="6.20303">
        <ele>1912</ele>
        <time>2020-02-07T16:35:52.463Z</time>
      </trkpt>
      <trkpt lat="45.32761" lon="6.2029">
        <ele>1912</ele>
        <time>2020-02-07T16:36:00.460Z</time>
      </trkpt>
      <trkpt lat="45.32761" lon="6.20274">
        <ele>1913</ele>
        <time>2020-02-07T16:36:09.473Z</time>
      </trkpt>
      <trkpt lat="45.32762" lon="6.20261">
        <ele>1913</ele>
        <time>2020-02-07T16:36:14.475Z</time>
      </trkpt>
      <trkpt lat="45.32763" lon="6.20248">
        <ele>1911.3357104607</ele>
        <time>2020-02-07T16:36:20.461Z</time>
      </trkpt>
      <trkpt lat="45.32763" lon="6.20235">
        <ele>1911.6729984</ele>
        <time>2020-02-07T16:36:27.463Z</time>
      </trkpt>
      <trkpt lat="45.32767" lon="6.20223">
        <ele>1912.6729984</ele>
        <time>2020-02-07T16:36:35.463Z</time>
      </trkpt>
      <trkpt lat="45.32768" lon="6.2021">
        <ele>1913</ele>
        <time>2020-02-07T16:36:43.460Z</time>
      </trkpt>
      <trkpt lat="45.32766" lon="6.20197">
        <ele>1914</ele>
        <time>2020-02-07T16:36:50.461Z</time>
      </trkpt>
      <trkpt lat="45.32765" lon="6.20185">
        <ele>1914</ele>
        <time>2020-02-07T16:36:57.465Z</time>
      </trkpt>
      <trkpt lat="45.32764" lon="6.20171">
        <ele>1914.5084627276</ele>
        <time>2020-02-07T16:37:06.461Z</time>
      </trkpt>
      <trkpt lat="45.32766" lon="6.20158">
        <ele>1915</ele>
        <time>2020-02-07T16:37:13.465Z</time>
      </trkpt>
      <trkpt lat="45.32769" lon="6.20145">
        <ele>1915</ele>
        <time>2020-02-07T16:37:21.463Z</time>
      </trkpt>
      <trkpt lat="45.32772" lon="6.20132">
        <ele>1916</ele>
        <time>2020-02-07T16:37:28.463Z</time>
      </trkpt>
      <trkpt lat="45.32776" lon="6.2012">
        <ele>1917</ele>
        <time>2020-02-07T16:37:35.463Z</time>
      </trkpt>
      <trkpt lat="45.32778" lon="6.20104">
        <ele>1917</ele>
        <time>2020-02-07T16:37:41.460Z</time>
      </trkpt>
      <trkpt lat="45.3278" lon="6.20088">
        <ele>1917</ele>
        <time>2020-02-07T16:37:46.463Z</time>
      </trkpt>
      <trkpt lat="45.3278" lon="6.20074">
        <ele>1918</ele>
        <time>2020-02-07T16:37:51.460Z</time>
      </trkpt>
      <trkpt lat="45.32783" lon="6.20062">
        <ele>1920</ele>
        <time>2020-02-07T16:38:05.460Z</time>
      </trkpt>
      <trkpt lat="45.32785" lon="6.20049">
        <ele>1920</ele>
        <time>2020-02-07T16:38:17.463Z</time>
      </trkpt>
      <trkpt lat="45.32783" lon="6.20037">
        <ele>1922</ele>
        <time>2020-02-07T16:38:27.460Z</time>
      </trkpt>
      <trkpt lat="45.32785" lon="6.20023">
        <ele>1924</ele>
        <time>2020-02-07T16:38:41.460Z</time>
      </trkpt>
      <trkpt lat="45.32786" lon="6.2001">
        <ele>1927</ele>
        <time>2020-02-07T16:38:55.460Z</time>
      </trkpt>
      <trkpt lat="45.32788" lon="6.19998">
        <ele>1928</ele>
        <time>2020-02-07T16:39:05.460Z</time>
      </trkpt>
      <trkpt lat="45.3279" lon="6.19985">
        <ele>1928</ele>
        <time>2020-02-07T16:39:18.465Z</time>
      </trkpt>
      <trkpt lat="45.32795" lon="6.19973">
        <ele>1930</ele>
        <time>2020-02-07T16:39:31.463Z</time>
      </trkpt>
      <trkpt lat="45.32801" lon="6.19962">
        <ele>1931</ele>
        <time>2020-02-07T16:39:43.460Z</time>
      </trkpt>
      <trkpt lat="45.32804" lon="6.19949">
        <ele>1933</ele>
        <time>2020-02-07T16:39:54.473Z</time>
      </trkpt>
      <trkpt lat="45.32805" lon="6.19935">
        <ele>1933.5060150521</ele>
        <time>2020-02-07T16:40:07.463Z</time>
      </trkpt>
      <trkpt lat="45.32807" lon="6.19922">
        <ele>1935</ele>
        <time>2020-02-07T16:40:17.460Z</time>
      </trkpt>
      <trkpt lat="45.32808" lon="6.1991">
        <ele>1936</ele>
        <time>2020-02-07T16:40:28.464Z</time>
      </trkpt>
      <trkpt lat="45.3281" lon="6.19896">
        <ele>1936</ele>
        <time>2020-02-07T16:40:37.460Z</time>
      </trkpt>
      <trkpt lat="45.32812" lon="6.19884">
        <ele>1938</ele>
        <time>2020-02-07T16:40:46.464Z</time>
      </trkpt>
      <trkpt lat="45.32816" lon="6.19871">
        <ele>1938</ele>
        <time>2020-02-07T16:40:57.460Z</time>
      </trkpt>
      <trkpt lat="45.32816" lon="6.19858">
        <ele>1938</ele>
        <time>2020-02-07T16:41:06.460Z</time>
      </trkpt>
      <trkpt lat="45.32815" lon="6.19844">
        <ele>1938</ele>
        <time>2020-02-07T16:41:16.460Z</time>
      </trkpt>
      <trkpt lat="45.32814" lon="6.19831">
        <ele>1940</ele>
        <time>2020-02-07T16:41:29.474Z</time>
      </trkpt>
      <trkpt lat="45.32814" lon="6.19818">
        <ele>1943</ele>
        <time>2020-02-07T16:41:47.464Z</time>
      </trkpt>
      <trkpt lat="45.32811" lon="6.19805">
        <ele>1945</ele>
        <time>2020-02-07T16:42:00.465Z</time>
      </trkpt>
      <trkpt lat="45.32813" lon="6.19792">
        <ele>1947</ele>
        <time>2020-02-07T16:42:14.474Z</time>
      </trkpt>
      <trkpt lat="45.32822" lon="6.198">
        <ele>1948.5638653745</ele>
        <time>2020-02-07T16:43:05.461Z</time>
      </trkpt>
      <trkpt lat="45.3281" lon="6.19785">
        <ele>1949</ele>
        <time>2020-02-07T16:43:14.474Z</time>
      </trkpt>
      <trkpt lat="45.32817" lon="6.19795">
        <ele>1949</ele>
        <time>2020-02-07T16:43:18.461Z</time>
      </trkpt>
      <trkpt lat="45.32822" lon="6.19784">
        <ele>1949</ele>
        <time>2020-02-07T16:43:40.460Z</time>
      </trkpt>
      <trkpt lat="45.32822" lon="6.1977">
        <ele>1949.6700032</ele>
        <time>2020-02-07T16:43:50.460Z</time>
      </trkpt>
      <trkpt lat="45.32816" lon="6.1976">
        <ele>1951</ele>
        <time>2020-02-07T16:43:59.462Z</time>
      </trkpt>
      <trkpt lat="45.32815" lon="6.19747">
        <ele>1953</ele>
        <time>2020-02-07T16:44:09.465Z</time>
      </trkpt>
      <trkpt lat="45.32816" lon="6.19734">
        <ele>1953</ele>
        <time>2020-02-07T16:44:17.465Z</time>
      </trkpt>
      <trkpt lat="45.32815" lon="6.19721">
        <ele>1953</ele>
        <time>2020-02-07T16:44:25.465Z</time>
      </trkpt>
      <trkpt lat="45.32817" lon="6.19708">
        <ele>1956</ele>
        <time>2020-02-07T16:44:39.465Z</time>
      </trkpt>
      <trkpt lat="45.32819" lon="6.19695">
        <ele>1958</ele>
        <time>2020-02-07T16:44:52.461Z</time>
      </trkpt>
      <trkpt lat="45.32818" lon="6.19682">
        <ele>1960</ele>
        <time>2020-02-07T16:45:03.462Z</time>
      </trkpt>
      <trkpt lat="45.32814" lon="6.19671">
        <ele>1963</ele>
        <time>2020-02-07T16:45:12.474Z</time>
      </trkpt>
      <trkpt lat="45.32809" lon="6.1966">
        <ele>1965</ele>
        <time>2020-02-07T16:45:24.474Z</time>
      </trkpt>
      <trkpt lat="45.32804" lon="6.1965">
        <ele>1966</ele>
        <time>2020-02-07T16:45:34.474Z</time>
      </trkpt>
      <trkpt lat="45.32798" lon="6.19639">
        <ele>1968</ele>
        <time>2020-02-07T16:45:45.474Z</time>
      </trkpt>
      <trkpt lat="45.32793" lon="6.19628">
        <ele>1969.5420175862</ele>
        <time>2020-02-07T16:45:59.474Z</time>
      </trkpt>
      <trkpt lat="45.32802" lon="6.19623">
        <ele>1973</ele>
        <time>2020-02-07T16:46:15.460Z</time>
      </trkpt>
      <trkpt lat="45.32797" lon="6.19612">
        <ele>1974</ele>
        <time>2020-02-07T16:46:35.461Z</time>
      </trkpt>
      <trkpt lat="45.32804" lon="6.19603">
        <ele>1979</ele>
        <time>2020-02-07T16:47:02.464Z</time>
      </trkpt>
      <trkpt lat="45.32813" lon="6.19595">
        <ele>1981</ele>
        <time>2020-02-07T16:47:16.460Z</time>
      </trkpt>
      <trkpt lat="45.3282" lon="6.19587">
        <ele>1984</ele>
        <time>2020-02-07T16:47:29.464Z</time>
      </trkpt>
      <trkpt lat="45.32828" lon="6.19582">
        <ele>1985</ele>
        <time>2020-02-07T16:47:42.460Z</time>
      </trkpt>
      <trkpt lat="45.32837" lon="6.19585">
        <ele>1989</ele>
        <time>2020-02-07T16:48:21.464Z</time>
      </trkpt>
      <trkpt lat="45.32842" lon="6.19573">
        <ele>1993</ele>
        <time>2020-02-07T16:48:44.469Z</time>
      </trkpt>
      <trkpt lat="45.32851" lon="6.19571">
        <ele>1996</ele>
        <time>2020-02-07T16:49:04.460Z</time>
      </trkpt>
      <trkpt lat="45.3286" lon="6.19571">
        <ele>1997</ele>
        <time>2020-02-07T16:49:17.460Z</time>
      </trkpt>
      <trkpt lat="45.3287" lon="6.19576">
        <ele>1999.6739968</ele>
        <time>2020-02-07T16:49:32.464Z</time>
      </trkpt>
      <trkpt lat="45.32878" lon="6.19579">
        <ele>2001</ele>
        <time>2020-02-07T16:49:45.464Z</time>
      </trkpt>
      <trkpt lat="45.32889" lon="6.19582">
        <ele>2002</ele>
        <time>2020-02-07T16:49:56.460Z</time>
      </trkpt>
      <trkpt lat="45.32898" lon="6.19585">
        <ele>2002.4992378645</ele>
        <time>2020-02-07T16:50:13.464Z</time>
      </trkpt>
      <trkpt lat="45.32908" lon="6.19586">
        <ele>2004</ele>
        <time>2020-02-07T16:51:24.472Z</time>
      </trkpt>
      <trkpt lat="45.32911" lon="6.19599">
        <ele>2004</ele>
        <time>2020-02-07T16:51:31.460Z</time>
      </trkpt>
      <trkpt lat="45.32915" lon="6.19611">
        <ele>2003</ele>
        <time>2020-02-07T16:51:40.460Z</time>
      </trkpt>
      <trkpt lat="45.32906" lon="6.19615">
        <ele>2003</ele>
        <time>2020-02-07T16:58:17.461Z</time>
      </trkpt>
      <trkpt lat="45.32904" lon="6.19601">
        <ele>2005</ele>
        <time>2020-02-07T17:00:10.473Z</time>
      </trkpt>
      <trkpt lat="45.32897" lon="6.19592">
        <ele>2005</ele>
        <time>2020-02-07T17:00:22.463Z</time>
      </trkpt>
      <trkpt lat="45.32889" lon="6.19589">
        <ele>2004</ele>
        <time>2020-02-07T17:00:33.463Z</time>
      </trkpt>
      <trkpt lat="45.3288" lon="6.19591">
        <ele>2003</ele>
        <time>2020-02-07T17:02:18.463Z</time>
      </trkpt>
      <trkpt lat="45.32888" lon="6.19587">
        <ele>2004</ele>
        <time>2020-02-07T17:03:00.473Z</time>
      </trkpt>
      <trkpt lat="45.3288" lon="6.19591">
        <ele>2003</ele>
        <time>2020-02-07T17:03:19.463Z</time>
      </trkpt>
      <trkpt lat="45.32889" lon="6.19588">
        <ele>2005</ele>
        <time>2020-02-07T17:03:41.464Z</time>
      </trkpt>
      <trkpt lat="45.32898" lon="6.19584">
        <ele>2006</ele>
        <time>2020-02-07T17:04:07.461Z</time>
      </trkpt>
      <trkpt lat="45.32889" lon="6.19582">
        <ele>2007</ele>
        <time>2020-02-07T17:05:19.463Z</time>
      </trkpt>
      <trkpt lat="45.3288" lon="6.19576">
        <ele>2007</ele>
        <time>2020-02-07T17:05:24.463Z</time>
      </trkpt>
      <trkpt lat="45.32888" lon="6.19583">
        <ele>2007</ele>
        <time>2020-02-07T17:06:12.474Z</time>
      </trkpt>
      <trkpt lat="45.32897" lon="6.19584">
        <ele>2007.4084837013</ele>
        <time>2020-02-07T17:06:33.474Z</time>
      </trkpt>
      <trkpt lat="45.32905" lon="6.19588">
        <ele>2007</ele>
        <time>2020-02-07T17:07:48.474Z</time>
      </trkpt>
      <trkpt lat="45.32914" lon="6.19585">
        <ele>2008</ele>
        <time>2020-02-07T17:08:11.463Z</time>
      </trkpt>
      <trkpt lat="45.32923" lon="6.19578">
        <ele>2010</ele>
        <time>2020-02-07T17:08:25.463Z</time>
      </trkpt>
      <trkpt lat="45.32931" lon="6.19574">
        <ele>2011</ele>
        <time>2020-02-07T17:08:36.464Z</time>
      </trkpt>
      <trkpt lat="45.3294" lon="6.19574">
        <ele>2012</ele>
        <time>2020-02-07T17:08:53.471Z</time>
      </trkpt>
      <trkpt lat="45.32951" lon="6.19576">
        <ele>2014</ele>
        <time>2020-02-07T17:09:06.474Z</time>
      </trkpt>
      <trkpt lat="45.3296" lon="6.19579">
        <ele>2017</ele>
        <time>2020-02-07T17:09:19.474Z</time>
      </trkpt>
      <trkpt lat="45.32969" lon="6.19578">
        <ele>2019</ele>
        <time>2020-02-07T17:09:34.474Z</time>
      </trkpt>
      <trkpt lat="45.32978" lon="6.19579">
        <ele>2020.6729984</ele>
        <time>2020-02-07T17:09:47.463Z</time>
      </trkpt>
      <trkpt lat="45.32987" lon="6.19582">
        <ele>2024</ele>
        <time>2020-02-07T17:10:04.474Z</time>
      </trkpt>
      <trkpt lat="45.32996" lon="6.19586">
        <ele>2027</ele>
        <time>2020-02-07T17:10:29.473Z</time>
      </trkpt>
      <trkpt lat="45.32999" lon="6.19574">
        <ele>2033</ele>
        <time>2020-02-07T17:10:55.463Z</time>
      </trkpt>
      <trkpt lat="45.32999" lon="6.19561">
        <ele>2035</ele>
        <time>2020-02-07T17:11:11.464Z</time>
      </trkpt>
      <trkpt lat="45.33007" lon="6.19555">
        <ele>2037</ele>
        <time>2020-02-07T17:11:36.463Z</time>
      </trkpt>
      <trkpt lat="45.33005" lon="6.19541">
        <ele>2041</ele>
        <time>2020-02-07T17:12:03.464Z</time>
      </trkpt>
      <trkpt lat="45.33006" lon="6.19528">
        <ele>2044</ele>
        <time>2020-02-07T17:12:38.463Z</time>
      </trkpt>
      <trkpt lat="45.33008" lon="6.19516">
        <ele>2046</ele>
        <time>2020-02-07T17:12:57.463Z</time>
      </trkpt>
      <trkpt lat="45.33015" lon="6.19505">
        <ele>2049</ele>
        <time>2020-02-07T17:13:18.473Z</time>
      </trkpt>
      <trkpt lat="45.33021" lon="6.19494">
        <ele>2055</ele>
        <time>2020-02-07T17:13:42.463Z</time>
      </trkpt>
      <trkpt lat="45.3303" lon="6.19492">
        <ele>2058</ele>
        <time>2020-02-07T17:14:02.463Z</time>
      </trkpt>
      <trkpt lat="45.33039" lon="6.19493">
        <ele>2059</ele>
        <time>2020-02-07T17:14:13.473Z</time>
      </trkpt>
      <trkpt lat="45.33048" lon="6.19489">
        <ele>2061</ele>
        <time>2020-02-07T17:14:27.461Z</time>
      </trkpt>
      <trkpt lat="45.33055" lon="6.19482">
        <ele>2063</ele>
        <time>2020-02-07T17:14:42.463Z</time>
      </trkpt>
      <trkpt lat="45.33063" lon="6.19475">
        <ele>2065</ele>
        <time>2020-02-07T17:14:55.463Z</time>
      </trkpt>
      <trkpt lat="45.3307" lon="6.19467">
        <ele>2067</ele>
        <time>2020-02-07T17:15:12.463Z</time>
      </trkpt>
      <trkpt lat="45.33078" lon="6.19459">
        <ele>2069</ele>
        <time>2020-02-07T17:15:27.461Z</time>
      </trkpt>
      <trkpt lat="45.33085" lon="6.19451">
        <ele>2070</ele>
        <time>2020-02-07T17:15:37.463Z</time>
      </trkpt>
      <trkpt lat="45.33093" lon="6.19444">
        <ele>2071.6809984</ele>
        <time>2020-02-07T17:15:48.471Z</time>
      </trkpt>
      <trkpt lat="45.33101" lon="6.19436">
        <ele>2073</ele>
        <time>2020-02-07T17:16:04.461Z</time>
      </trkpt>
      <trkpt lat="45.33108" lon="6.19428">
        <ele>2078</ele>
        <time>2020-02-07T17:16:24.463Z</time>
      </trkpt>
      <trkpt lat="45.33113" lon="6.19418">
        <ele>2079.6729984</ele>
        <time>2020-02-07T17:16:35.463Z</time>
      </trkpt>
      <trkpt lat="45.33123" lon="6.19412">
        <ele>2080.5082101885</ele>
        <time>2020-02-07T17:16:48.471Z</time>
      </trkpt>
      <trkpt lat="45.33128" lon="6.19401">
        <ele>2084</ele>
        <time>2020-02-07T17:17:11.474Z</time>
      </trkpt>
      <trkpt lat="45.33134" lon="6.19392">
        <ele>2088</ele>
        <time>2020-02-07T17:17:47.474Z</time>
      </trkpt>
      <trkpt lat="45.33144" lon="6.1939">
        <ele>2088</ele>
        <time>2020-02-07T17:18:39.463Z</time>
      </trkpt>
      <trkpt lat="45.3315" lon="6.19379">
        <ele>2091</ele>
        <time>2020-02-07T17:20:26.473Z</time>
      </trkpt>
      <trkpt lat="45.33152" lon="6.19366">
        <ele>2094</ele>
        <time>2020-02-07T17:20:45.464Z</time>
      </trkpt>
      <trkpt lat="45.33144" lon="6.19359">
        <ele>2097</ele>
        <time>2020-02-07T17:21:00.464Z</time>
      </trkpt>
      <trkpt lat="45.3314" lon="6.19347">
        <ele>2098</ele>
        <time>2020-02-07T17:21:13.464Z</time>
      </trkpt>
      <trkpt lat="45.33141" lon="6.19333">
        <ele>2100.5260824398</ele>
        <time>2020-02-07T17:21:27.463Z</time>
      </trkpt>
      <trkpt lat="45.33143" lon="6.1932">
        <ele>2104</ele>
        <time>2020-02-07T17:21:51.472Z</time>
      </trkpt>
      <trkpt lat="45.33149" lon="6.19311">
        <ele>2105.4078786092</ele>
        <time>2020-02-07T17:22:04.463Z</time>
      </trkpt>
      <trkpt lat="45.33152" lon="6.19298">
        <ele>2108</ele>
        <time>2020-02-07T17:22:23.463Z</time>
      </trkpt>
      <trkpt lat="45.33158" lon="6.19288">
        <ele>2110</ele>
        <time>2020-02-07T17:22:38.462Z</time>
      </trkpt>
      <trkpt lat="45.33164" lon="6.19279">
        <ele>2112</ele>
        <time>2020-02-07T17:22:51.472Z</time>
      </trkpt>
      <trkpt lat="45.33172" lon="6.1927">
        <ele>2113</ele>
        <time>2020-02-07T17:23:02.462Z</time>
      </trkpt>
      <trkpt lat="45.33172" lon="6.19256">
        <ele>2116</ele>
        <time>2020-02-07T17:23:36.474Z</time>
      </trkpt>
      <trkpt lat="45.33176" lon="6.19244">
        <ele>2117</ele>
        <time>2020-02-07T17:23:55.462Z</time>
      </trkpt>
      <trkpt lat="45.33181" lon="6.19233">
        <ele>2118.6829952</ele>
        <time>2020-02-07T17:24:12.473Z</time>
      </trkpt>
      <trkpt lat="45.33184" lon="6.19221">
        <ele>2120</ele>
        <time>2020-02-07T17:24:26.462Z</time>
      </trkpt>
      <trkpt lat="45.33187" lon="6.19208">
        <ele>2124</ele>
        <time>2020-02-07T17:24:42.472Z</time>
      </trkpt>
      <trkpt lat="45.33186" lon="6.19195">
        <ele>2126</ele>
        <time>2020-02-07T17:24:57.475Z</time>
      </trkpt>
      <trkpt lat="45.33181" lon="6.19184">
        <ele>2128</ele>
        <time>2020-02-07T17:25:10.462Z</time>
      </trkpt>
      <trkpt lat="45.33187" lon="6.19174">
        <ele>2130.672</ele>
        <time>2020-02-07T17:25:26.462Z</time>
      </trkpt>
      <trkpt lat="45.33191" lon="6.19162">
        <ele>2132</ele>
        <time>2020-02-07T17:25:41.574Z</time>
      </trkpt>
      <trkpt lat="45.33191" lon="6.19149">
        <ele>2133</ele>
        <time>2020-02-07T17:25:55.472Z</time>
      </trkpt>
      <trkpt lat="45.33194" lon="6.19135">
        <ele>2135.5145051445</ele>
        <time>2020-02-07T17:26:11.464Z</time>
      </trkpt>
      <trkpt lat="45.33194" lon="6.19122">
        <ele>2138</ele>
        <time>2020-02-07T17:26:25.474Z</time>
      </trkpt>
      <trkpt lat="45.33188" lon="6.1911">
        <ele>2139</ele>
        <time>2020-02-07T17:26:38.460Z</time>
      </trkpt>
      <trkpt lat="45.33189" lon="6.19097">
        <ele>2143.347070413</ele>
        <time>2020-02-07T17:26:56.477Z</time>
      </trkpt>
      <trkpt lat="45.332" lon="6.19091">
        <ele>2145</ele>
        <time>2020-02-07T17:28:03.472Z</time>
      </trkpt>
      <trkpt lat="45.33191" lon="6.19085">
        <ele>2144</ele>
        <time>2020-02-07T17:28:50.474Z</time>
      </trkpt>
      <trkpt lat="45.33199" lon="6.19089">
        <ele>2145</ele>
        <time>2020-02-07T17:29:03.476Z</time>
      </trkpt>
      <trkpt lat="45.33208" lon="6.19095">
        <ele>2147.510445423</ele>
        <time>2020-02-07T17:29:55.474Z</time>
      </trkpt>
      <trkpt lat="45.33216" lon="6.19098">
        <ele>2150</ele>
        <time>2020-02-07T17:30:10.462Z</time>
      </trkpt>
      <trkpt lat="45.33225" lon="6.19098">
        <ele>2152.672</ele>
        <time>2020-02-07T17:30:31.462Z</time>
      </trkpt>
      <trkpt lat="45.33225" lon="6.19084">
        <ele>2156</ele>
        <time>2020-02-07T17:31:00.461Z</time>
      </trkpt>
      <trkpt lat="45.3322" lon="6.19072">
        <ele>2158</ele>
        <time>2020-02-07T17:31:13.461Z</time>
      </trkpt>
      <trkpt lat="45.33222" lon="6.1906">
        <ele>2160</ele>
        <time>2020-02-07T17:31:28.574Z</time>
      </trkpt>
      <trkpt lat="45.33224" lon="6.19048">
        <ele>2162</ele>
        <time>2020-02-07T17:31:42.476Z</time>
      </trkpt>
      <trkpt lat="45.33221" lon="6.19034">
        <ele>2164</ele>
        <time>2020-02-07T17:31:59.462Z</time>
      </trkpt>
      <trkpt lat="45.33224" lon="6.19021">
        <ele>2166</ele>
        <time>2020-02-07T17:32:16.461Z</time>
      </trkpt>
      <trkpt lat="45.33222" lon="6.19007">
        <ele>2169</ele>
        <time>2020-02-07T17:32:32.476Z</time>
      </trkpt>
      <trkpt lat="45.3322" lon="6.18994">
        <ele>2172</ele>
        <time>2020-02-07T17:32:52.461Z</time>
      </trkpt>
      <trkpt lat="45.33213" lon="6.18984">
        <ele>2173</ele>
        <time>2020-02-07T17:33:36.462Z</time>
      </trkpt>
      <trkpt lat="45.33221" lon="6.18989">
        <ele>2176</ele>
        <time>2020-02-07T17:33:52.462Z</time>
      </trkpt>
      <trkpt lat="45.33231" lon="6.18995">
        <ele>2180</ele>
        <time>2020-02-07T17:34:10.474Z</time>
      </trkpt>
      <trkpt lat="45.33237" lon="6.19005">
        <ele>2181</ele>
        <time>2020-02-07T17:34:33.463Z</time>
      </trkpt>
      <trkpt lat="45.33228" lon="6.18993">
        <ele>2181</ele>
        <time>2020-02-07T17:34:58.474Z</time>
      </trkpt>
      <trkpt lat="45.33234" lon="6.19003">
        <ele>2181.5161788235</ele>
        <time>2020-02-07T17:35:04.461Z</time>
      </trkpt>
      <trkpt lat="45.33228" lon="6.18993">
        <ele>2181</ele>
        <time>2020-02-07T17:35:29.474Z</time>
      </trkpt>
      <trkpt lat="45.33223" lon="6.18981">
        <ele>2181</ele>
        <time>2020-02-07T17:35:31.474Z</time>
      </trkpt>
      <trkpt lat="45.33226" lon="6.18994">
        <ele>2181</ele>
        <time>2020-02-07T17:35:41.476Z</time>
      </trkpt>
      <trkpt lat="45.33233" lon="6.18986">
        <ele>2184</ele>
        <time>2020-02-07T17:36:10.462Z</time>
      </trkpt>
      <trkpt lat="45.33228" lon="6.18974">
        <ele>2186</ele>
        <time>2020-02-07T17:36:23.462Z</time>
      </trkpt>
      <trkpt lat="45.33237" lon="6.1897">
        <ele>2188</ele>
        <time>2020-02-07T17:36:42.477Z</time>
      </trkpt>
      <trkpt lat="45.33245" lon="6.18979">
        <ele>2188</ele>
        <time>2020-02-07T17:36:50.474Z</time>
      </trkpt>
      <trkpt lat="45.3325" lon="6.1899">
        <ele>2191</ele>
        <time>2020-02-07T17:37:12.462Z</time>
      </trkpt>
      <trkpt lat="45.33259" lon="6.18995">
        <ele>2193</ele>
        <time>2020-02-07T17:37:26.474Z</time>
      </trkpt>
      <trkpt lat="45.33268" lon="6.18999">
        <ele>2194</ele>
        <time>2020-02-07T17:37:32.461Z</time>
      </trkpt>
      <trkpt lat="45.33259" lon="6.18994">
        <ele>2198</ele>
        <time>2020-02-07T17:38:52.461Z</time>
      </trkpt>
      <trkpt lat="45.33249" lon="6.18994">
        <ele>2198</ele>
        <time>2020-02-07T17:39:00.461Z</time>
      </trkpt>
      <trkpt lat="45.33239" lon="6.18988">
        <ele>2198</ele>
        <time>2020-02-07T17:39:09.462Z</time>
      </trkpt>
      <trkpt lat="45.33249" lon="6.18997">
        <ele>2198</ele>
        <time>2020-02-07T17:39:25.461Z</time>
      </trkpt>
      <trkpt lat="45.33258" lon="6.19003">
        <ele>2198</ele>
        <time>2020-02-07T17:39:33.472Z</time>
      </trkpt>
      <trkpt lat="45.3325" lon="6.18994">
        <ele>2198</ele>
        <time>2020-02-07T17:39:48.477Z</time>
      </trkpt>
      <trkpt lat="45.33258" lon="6.18988">
        <ele>2198.672</ele>
        <time>2020-02-07T17:40:05.462Z</time>
      </trkpt>
      <trkpt lat="45.33263" lon="6.18976">
        <ele>2201</ele>
        <time>2020-02-07T17:40:22.462Z</time>
      </trkpt>
      <trkpt lat="45.33266" lon="6.18964">
        <ele>2204.3639936</ele>
        <time>2020-02-07T17:40:43.472Z</time>
      </trkpt>
      <trkpt lat="45.33259" lon="6.18955">
        <ele>2206</ele>
        <time>2020-02-07T17:40:53.476Z</time>
      </trkpt>
      <trkpt lat="45.3325" lon="6.18946">
        <ele>2207.328</ele>
        <time>2020-02-07T17:41:01.462Z</time>
      </trkpt>
      <trkpt lat="45.33263" lon="6.18945">
        <ele>2210</ele>
        <time>2020-02-07T17:41:13.476Z</time>
      </trkpt>
      <trkpt lat="45.33258" lon="6.18933">
        <ele>2210</ele>
        <time>2020-02-07T17:41:23.474Z</time>
      </trkpt>
      <trkpt lat="45.33248" lon="6.18928">
        <ele>2210</ele>
        <time>2020-02-07T17:41:27.461Z</time>
      </trkpt>
      <trkpt lat="45.33257" lon="6.18936">
        <ele>2210</ele>
        <time>2020-02-07T17:41:37.474Z</time>
      </trkpt>
      <trkpt lat="45.33267" lon="6.18941">
        <ele>2210</ele>
        <time>2020-02-07T17:41:42.461Z</time>
      </trkpt>
      <trkpt lat="45.33275" lon="6.18949">
        <ele>2211</ele>
        <time>2020-02-07T17:42:17.461Z</time>
      </trkpt>
      <trkpt lat="45.33283" lon="6.18957">
        <ele>2212</ele>
        <time>2020-02-07T17:42:26.474Z</time>
      </trkpt>
      <trkpt lat="45.3329" lon="6.18968">
        <ele>2216</ele>
        <time>2020-02-07T17:42:45.474Z</time>
      </trkpt>
      <trkpt lat="45.33299" lon="6.18971">
        <ele>2218</ele>
        <time>2020-02-07T17:43:11.461Z</time>
      </trkpt>
      <trkpt lat="45.33292" lon="6.18959">
        <ele>2219</ele>
        <time>2020-02-07T17:43:28.473Z</time>
      </trkpt>
      <trkpt lat="45.33286" lon="6.18947">
        <ele>2221</ele>
        <time>2020-02-07T17:43:40.462Z</time>
      </trkpt>
      <trkpt lat="45.33285" lon="6.18933">
        <ele>2223</ele>
        <time>2020-02-07T17:43:52.462Z</time>
      </trkpt>
      <trkpt lat="45.33293" lon="6.18924">
        <ele>2225</ele>
        <time>2020-02-07T17:44:05.463Z</time>
      </trkpt>
      <trkpt lat="45.33289" lon="6.18912">
        <ele>2227</ele>
        <time>2020-02-07T17:44:17.462Z</time>
      </trkpt>
      <trkpt lat="45.33287" lon="6.189">
        <ele>2228.684992</ele>
        <time>2020-02-07T17:44:28.475Z</time>
      </trkpt>
      <trkpt lat="45.33297" lon="6.18906">
        <ele>2231</ele>
        <time>2020-02-07T17:44:32.461Z</time>
      </trkpt>
      <trkpt lat="45.33309" lon="6.18913">
        <ele>2229</ele>
        <time>2020-02-07T17:44:57.462Z</time>
      </trkpt>
      <trkpt lat="45.33291" lon="6.18901">
        <ele>2231</ele>
        <time>2020-02-07T17:45:16.474Z</time>
      </trkpt>
      <trkpt lat="45.33283" lon="6.18908">
        <ele>2233</ele>
        <time>2020-02-07T17:45:50.474Z</time>
      </trkpt>
      <trkpt lat="45.33294" lon="6.18907">
        <ele>2233</ele>
        <time>2020-02-07T17:46:01.461Z</time>
      </trkpt>
      <trkpt lat="45.33313" lon="6.18922">
        <ele>2233</ele>
        <time>2020-02-07T17:46:06.474Z</time>
      </trkpt>
      <trkpt lat="45.33341" lon="6.18935">
        <ele>2234</ele>
        <time>2020-02-07T17:46:27.474Z</time>
      </trkpt>
      <trkpt lat="45.33359" lon="6.18943">
        <ele>2234</ele>
        <time>2020-02-07T17:46:28.474Z</time>
      </trkpt>
      <trkpt lat="45.33348" lon="6.18939">
        <ele>2234</ele>
        <time>2020-02-07T17:46:34.476Z</time>
      </trkpt>
      <trkpt lat="45.33339" lon="6.18936">
        <ele>2234</ele>
        <time>2020-02-07T17:46:38.461Z</time>
      </trkpt>
      <trkpt lat="45.33329" lon="6.18932">
        <ele>2234.6610048</ele>
        <time>2020-02-07T17:46:42.461Z</time>
      </trkpt>
      <trkpt lat="45.3332" lon="6.18928">
        <ele>2235</ele>
        <time>2020-02-07T17:46:47.474Z</time>
      </trkpt>
      <trkpt lat="45.33326" lon="6.18916">
        <ele>2244</ele>
        <time>2020-02-07T17:47:40.462Z</time>
      </trkpt>
      <trkpt lat="45.3332" lon="6.18904">
        <ele>2245</ele>
        <time>2020-02-07T17:47:51.472Z</time>
      </trkpt>
      <trkpt lat="45.33322" lon="6.1889">
        <ele>2247</ele>
        <time>2020-02-07T17:48:07.579Z</time>
      </trkpt>
      <trkpt lat="45.33315" lon="6.18881">
        <ele>2248</ele>
        <time>2020-02-07T17:48:13.474Z</time>
      </trkpt>
      <trkpt lat="45.33322" lon="6.18874">
        <ele>2251</ele>
        <time>2020-02-07T17:49:25.475Z</time>
      </trkpt>
      <trkpt lat="45.3333" lon="6.18883">
        <ele>2253</ele>
        <time>2020-02-07T17:49:38.460Z</time>
      </trkpt>
      <trkpt lat="45.33338" lon="6.18887">
        <ele>2255</ele>
        <time>2020-02-07T17:50:07.461Z</time>
      </trkpt>
      <trkpt lat="45.33349" lon="6.18892">
        <ele>2255</ele>
        <time>2020-02-07T17:50:25.475Z</time>
      </trkpt>
      <trkpt lat="45.33358" lon="6.18893">
        <ele>2255</ele>
        <time>2020-02-07T17:50:33.461Z</time>
      </trkpt>
      <trkpt lat="45.33365" lon="6.18902">
        <ele>2255.6480128</ele>
        <time>2020-02-07T17:50:55.476Z</time>
      </trkpt>
      <trkpt lat="45.33346" lon="6.18897">
        <ele>2255.8392543033</ele>
        <time>2020-02-07T17:51:04.474Z</time>
      </trkpt>
      <trkpt lat="45.33352" lon="6.18908">
        <ele>2260.684992</ele>
        <time>2020-02-07T17:51:28.475Z</time>
      </trkpt>
      <trkpt lat="45.33355" lon="6.1892">
        <ele>2262</ele>
        <time>2020-02-07T17:51:40.460Z</time>
      </trkpt>
      <trkpt lat="45.33362" lon="6.18929">
        <ele>2265</ele>
        <time>2020-02-07T17:51:51.460Z</time>
      </trkpt>
      <trkpt lat="45.33364" lon="6.18916">
        <ele>2267</ele>
        <time>2020-02-07T17:52:34.462Z</time>
      </trkpt>
      <trkpt lat="45.33365" lon="6.18902">
        <ele>2269</ele>
        <time>2020-02-07T17:52:51.463Z</time>
      </trkpt>
      <trkpt lat="45.33363" lon="6.18889">
        <ele>2271</ele>
        <time>2020-02-07T17:53:03.473Z</time>
      </trkpt>
      <trkpt lat="45.33361" lon="6.18876">
        <ele>2273</ele>
        <time>2020-02-07T17:53:14.463Z</time>
      </trkpt>
      <trkpt lat="45.33361" lon="6.18862">
        <ele>2275</ele>
        <time>2020-02-07T17:53:26.463Z</time>
      </trkpt>
      <trkpt lat="45.33358" lon="6.18849">
        <ele>2276.672</ele>
        <time>2020-02-07T17:53:37.462Z</time>
      </trkpt>
      <trkpt lat="45.33354" lon="6.18837">
        <ele>2278</ele>
        <time>2020-02-07T17:54:06.464Z</time>
      </trkpt>
      <trkpt lat="45.33359" lon="6.18826">
        <ele>2287</ele>
        <time>2020-02-07T17:55:41.463Z</time>
      </trkpt>
      <trkpt lat="45.33353" lon="6.18816">
        <ele>2290</ele>
        <time>2020-02-07T17:55:59.464Z</time>
      </trkpt>
      <trkpt lat="45.33346" lon="6.18808">
        <ele>2292</ele>
        <time>2020-02-07T17:56:11.464Z</time>
      </trkpt>
      <trkpt lat="45.3334" lon="6.18797">
        <ele>2293</ele>
        <time>2020-02-07T17:56:23.473Z</time>
      </trkpt>
      <trkpt lat="45.33334" lon="6.18787">
        <ele>2294</ele>
        <time>2020-02-07T17:56:34.464Z</time>
      </trkpt>
      <trkpt lat="45.33328" lon="6.18777">
        <ele>2294</ele>
        <time>2020-02-07T17:56:47.459Z</time>
      </trkpt>
      <trkpt lat="45.33336" lon="6.18782">
        <ele>2294</ele>
        <time>2020-02-07T17:58:07.460Z</time>
      </trkpt>
      <trkpt lat="45.33341" lon="6.18793">
        <ele>2294</ele>
        <time>2020-02-07T17:58:18.460Z</time>
      </trkpt>
      <trkpt lat="45.33348" lon="6.18785">
        <ele>2299</ele>
        <time>2020-02-07T17:59:43.461Z</time>
      </trkpt>
      <trkpt lat="45.33339" lon="6.18781">
        <ele>2299</ele>
        <time>2020-02-07T18:08:38.460Z</time>
      </trkpt>
      <trkpt lat="45.33329" lon="6.18779">
        <ele>2295.3299968</ele>
        <time>2020-02-07T18:08:46.460Z</time>
      </trkpt>
      <trkpt lat="45.33322" lon="6.18769">
        <ele>2293</ele>
        <time>2020-02-07T18:15:48.461Z</time>
      </trkpt>
      <trkpt lat="45.33314" lon="6.18763">
        <ele>2292.3140096</ele>
        <time>2020-02-07T18:16:11.476Z</time>
      </trkpt>
      <trkpt lat="45.33325" lon="6.18763">
        <ele>2291</ele>
        <time>2020-02-07T18:17:29.460Z</time>
      </trkpt>
      <trkpt lat="45.33327" lon="6.1875">
        <ele>2286</ele>
        <time>2020-02-07T18:17:48.464Z</time>
      </trkpt>
      <trkpt lat="45.3333" lon="6.18738">
        <ele>2281</ele>
        <time>2020-02-07T18:18:07.464Z</time>
      </trkpt>
      <trkpt lat="45.3334" lon="6.18732">
        <ele>2278</ele>
        <time>2020-02-07T18:29:37.460Z</time>
      </trkpt>
      <trkpt lat="45.33348" lon="6.18719">
        <ele>2276.315008</ele>
        <time>2020-02-07T18:29:40.475Z</time>
      </trkpt>
      <trkpt lat="45.33353" lon="6.18706">
        <ele>2275.328</ele>
        <time>2020-02-07T18:29:42.462Z</time>
      </trkpt>
      <trkpt lat="45.33356" lon="6.18693">
        <ele>2273.501501357</ele>
        <time>2020-02-07T18:29:44.463Z</time>
      </trkpt>
      <trkpt lat="45.33361" lon="6.18682">
        <ele>2269.656</ele>
        <time>2020-02-07T18:29:46.462Z</time>
      </trkpt>
      <trkpt lat="45.33364" lon="6.18666">
        <ele>2264.6600192</ele>
        <time>2020-02-07T18:29:49.460Z</time>
      </trkpt>
      <trkpt lat="45.33367" lon="6.18652">
        <ele>2259.656</ele>
        <time>2020-02-07T18:29:52.462Z</time>
      </trkpt>
      <trkpt lat="45.33367" lon="6.18639">
        <ele>2256.32</ele>
        <time>2020-02-07T18:29:55.470Z</time>
      </trkpt>
      <trkpt lat="45.33366" lon="6.18626">
        <ele>2250.9940202699</ele>
        <time>2020-02-07T18:29:58.462Z</time>
      </trkpt>
      <trkpt lat="45.33365" lon="6.18613">
        <ele>2242.9900288</ele>
        <time>2020-02-07T18:30:01.460Z</time>
      </trkpt>
      <trkpt lat="45.33373" lon="6.18603">
        <ele>2233.6599936</ele>
        <time>2020-02-07T18:30:24.460Z</time>
      </trkpt>
      <trkpt lat="45.3338" lon="6.18588">
        <ele>2225.3725701808</ele>
        <time>2020-02-07T18:30:27.460Z</time>
      </trkpt>
      <trkpt lat="45.33386" lon="6.18575">
        <ele>2218.9617694118</ele>
        <time>2020-02-07T18:30:29.463Z</time>
      </trkpt>
      <trkpt lat="45.33391" lon="6.1856">
        <ele>2211.9880596445</ele>
        <time>2020-02-07T18:30:31.464Z</time>
      </trkpt>
      <trkpt lat="45.334" lon="6.18547">
        <ele>2205.6435759004</ele>
        <time>2020-02-07T18:30:33.475Z</time>
      </trkpt>
      <trkpt lat="45.3341" lon="6.18535">
        <ele>2203.3300096</ele>
        <time>2020-02-07T18:30:35.460Z</time>
      </trkpt>
      <trkpt lat="45.33417" lon="6.18525">
        <ele>2201.3300096</ele>
        <time>2020-02-07T18:30:37.460Z</time>
      </trkpt>
      <trkpt lat="45.33424" lon="6.18513">
        <ele>2198</ele>
        <time>2020-02-07T18:30:40.461Z</time>
      </trkpt>
      <trkpt lat="45.33423" lon="6.185">
        <ele>2197</ele>
        <time>2020-02-07T18:31:51.462Z</time>
      </trkpt>
      <trkpt lat="45.33424" lon="6.18485">
        <ele>2196.3170048</ele>
        <time>2020-02-07T18:31:53.473Z</time>
      </trkpt>
      <trkpt lat="45.33427" lon="6.18469">
        <ele>2193.328</ele>
        <time>2020-02-07T18:31:56.462Z</time>
      </trkpt>
      <trkpt lat="45.33427" lon="6.18455">
        <ele>2192</ele>
        <time>2020-02-07T18:31:59.463Z</time>
      </trkpt>
      <trkpt lat="45.3342" lon="6.18441">
        <ele>2190</ele>
        <time>2020-02-07T18:32:02.463Z</time>
      </trkpt>
      <trkpt lat="45.33417" lon="6.18423">
        <ele>2186.328</ele>
        <time>2020-02-07T18:32:05.462Z</time>
      </trkpt>
      <trkpt lat="45.33414" lon="6.18407">
        <ele>2183.6500096</ele>
        <time>2020-02-07T18:32:07.465Z</time>
      </trkpt>
      <trkpt lat="45.33411" lon="6.18391">
        <ele>2180.328</ele>
        <time>2020-02-07T18:32:09.462Z</time>
      </trkpt>
      <trkpt lat="45.33411" lon="6.18375">
        <ele>2178.0121115152</ele>
        <time>2020-02-07T18:32:11.462Z</time>
      </trkpt>
      <trkpt lat="45.3342" lon="6.18362">
        <ele>2175.315008</ele>
        <time>2020-02-07T18:32:13.475Z</time>
      </trkpt>
      <trkpt lat="45.33428" lon="6.18351">
        <ele>2172.3270016</ele>
        <time>2020-02-07T18:32:15.463Z</time>
      </trkpt>
      <trkpt lat="45.33435" lon="6.18338">
        <ele>2171.3270016</ele>
        <time>2020-02-07T18:32:17.463Z</time>
      </trkpt>
      <trkpt lat="45.3344" lon="6.18325">
        <ele>2170</ele>
        <time>2020-02-07T18:32:19.463Z</time>
      </trkpt>
      <trkpt lat="45.33441" lon="6.18311">
        <ele>2168</ele>
        <time>2020-02-07T18:32:23.473Z</time>
      </trkpt>
      <trkpt lat="45.33441" lon="6.18298">
        <ele>2168</ele>
        <time>2020-02-07T18:32:31.465Z</time>
      </trkpt>
      <trkpt lat="45.33444" lon="6.18284">
        <ele>2168</ele>
        <time>2020-02-07T18:32:44.465Z</time>
      </trkpt>
      <trkpt lat="45.33448" lon="6.18271">
        <ele>2166</ele>
        <time>2020-02-07T18:32:48.473Z</time>
      </trkpt>
      <trkpt lat="45.33459" lon="6.18265">
        <ele>2162.4999952239</ele>
        <time>2020-02-07T18:32:52.460Z</time>
      </trkpt>
      <trkpt lat="45.3347" lon="6.1826">
        <ele>2159.3270016</ele>
        <time>2020-02-07T18:32:55.463Z</time>
      </trkpt>
      <trkpt lat="45.3348" lon="6.18248">
        <ele>2154.3180032</ele>
        <time>2020-02-07T18:32:58.472Z</time>
      </trkpt>
      <trkpt lat="45.33484" lon="6.18232">
        <ele>2148.9759397917</ele>
        <time>2020-02-07T18:33:00.463Z</time>
      </trkpt>
      <trkpt lat="45.33485" lon="6.18217">
        <ele>2142.6540032</ele>
        <time>2020-02-07T18:33:02.463Z</time>
      </trkpt>
      <trkpt lat="45.33483" lon="6.18202">
        <ele>2140.4977599893</ele>
        <time>2020-02-07T18:33:04.463Z</time>
      </trkpt>
      <trkpt lat="45.33485" lon="6.18184">
        <ele>2137.3270016</ele>
        <time>2020-02-07T18:33:07.463Z</time>
      </trkpt>
      <trkpt lat="45.33493" lon="6.18175">
        <ele>2134</ele>
        <time>2020-02-07T18:34:38.463Z</time>
      </trkpt>
      <trkpt lat="45.33499" lon="6.18157">
        <ele>2132.656</ele>
        <time>2020-02-07T18:34:41.462Z</time>
      </trkpt>
      <trkpt lat="45.33504" lon="6.18142">
        <ele>2129.5052993939</ele>
        <time>2020-02-07T18:34:43.463Z</time>
      </trkpt>
      <trkpt lat="45.3351" lon="6.18127">
        <ele>2125.656</ele>
        <time>2020-02-07T18:34:45.462Z</time>
      </trkpt>
      <trkpt lat="45.33515" lon="6.18112">
        <ele>2121.6540032</ele>
        <time>2020-02-07T18:34:47.463Z</time>
      </trkpt>
      <trkpt lat="45.33522" lon="6.18099">
        <ele>2115.9389952</ele>
        <time>2020-02-07T18:34:49.477Z</time>
      </trkpt>
      <trkpt lat="45.33528" lon="6.18085">
        <ele>2112.295148382</ele>
        <time>2020-02-07T18:34:51.463Z</time>
      </trkpt>
      <trkpt lat="45.33534" lon="6.1807">
        <ele>2106.6540032</ele>
        <time>2020-02-07T18:34:53.463Z</time>
      </trkpt>
      <trkpt lat="45.33538" lon="6.18051">
        <ele>2103.4710236337</ele>
        <time>2020-02-07T18:34:55.465Z</time>
      </trkpt>
      <trkpt lat="45.33538" lon="6.18033">
        <ele>2100.3270016</ele>
        <time>2020-02-07T18:34:57.463Z</time>
      </trkpt>
      <trkpt lat="45.33537" lon="6.18016">
        <ele>2097.4910447334</ele>
        <time>2020-02-07T18:34:59.472Z</time>
      </trkpt>
      <trkpt lat="45.33536" lon="6.18001">
        <ele>2092.656</ele>
        <time>2020-02-07T18:35:01.462Z</time>
      </trkpt>
      <trkpt lat="45.33531" lon="6.17988">
        <ele>2091.328</ele>
        <time>2020-02-07T18:35:03.462Z</time>
      </trkpt>
      <trkpt lat="45.33528" lon="6.17973">
        <ele>2089.3270016</ele>
        <time>2020-02-07T18:35:05.463Z</time>
      </trkpt>
      <trkpt lat="45.33526" lon="6.17958">
        <ele>2086.328</ele>
        <time>2020-02-07T18:35:07.462Z</time>
      </trkpt>
      <trkpt lat="45.33524" lon="6.17944">
        <ele>2085</ele>
        <time>2020-02-07T18:35:10.465Z</time>
      </trkpt>
      <trkpt lat="45.33522" lon="6.17929">
        <ele>2083</ele>
        <time>2020-02-07T18:35:14.472Z</time>
      </trkpt>
      <trkpt lat="45.33523" lon="6.17916">
        <ele>2081</ele>
        <time>2020-02-07T18:35:17.465Z</time>
      </trkpt>
      <trkpt lat="45.33523" lon="6.17901">
        <ele>2079</ele>
        <time>2020-02-07T18:35:21.462Z</time>
      </trkpt>
      <trkpt lat="45.33523" lon="6.17887">
        <ele>2079</ele>
        <time>2020-02-07T18:35:25.462Z</time>
      </trkpt>
      <trkpt lat="45.33522" lon="6.17872">
        <ele>2078</ele>
        <time>2020-02-07T18:35:30.462Z</time>
      </trkpt>
      <trkpt lat="45.33523" lon="6.17859">
        <ele>2076</ele>
        <time>2020-02-07T18:35:33.464Z</time>
      </trkpt>
      <trkpt lat="45.33521" lon="6.17843">
        <ele>2075</ele>
        <time>2020-02-07T18:36:16.464Z</time>
      </trkpt>
      <trkpt lat="45.33524" lon="6.17831">
        <ele>2074.3180032</ele>
        <time>2020-02-07T18:36:19.472Z</time>
      </trkpt>
      <trkpt lat="45.33526" lon="6.17816">
        <ele>2072.3346513573</ele>
        <time>2020-02-07T18:36:22.462Z</time>
      </trkpt>
      <trkpt lat="45.33528" lon="6.178">
        <ele>2071</ele>
        <time>2020-02-07T18:36:26.463Z</time>
      </trkpt>
      <trkpt lat="45.3353" lon="6.17787">
        <ele>2069.9587758811</ele>
        <time>2020-02-07T18:36:29.472Z</time>
      </trkpt>
      <trkpt lat="45.33533" lon="6.17773">
        <ele>2067.328</ele>
        <time>2020-02-07T18:36:32.462Z</time>
      </trkpt>
      <trkpt lat="45.33535" lon="6.17757">
        <ele>2066</ele>
        <time>2020-02-07T18:36:35.462Z</time>
      </trkpt>
      <trkpt lat="45.33536" lon="6.17738">
        <ele>2064.5022520355</ele>
        <time>2020-02-07T18:36:38.462Z</time>
      </trkpt>
      <trkpt lat="45.33538" lon="6.17725">
        <ele>2064</ele>
        <time>2020-02-07T18:36:40.460Z</time>
      </trkpt>
      <trkpt lat="45.33539" lon="6.17711">
        <ele>2063</ele>
        <time>2020-02-07T18:36:42.463Z</time>
      </trkpt>
      <trkpt lat="45.33541" lon="6.17697">
        <ele>2062</ele>
        <time>2020-02-07T18:36:44.475Z</time>
      </trkpt>
      <trkpt lat="45.33543" lon="6.17683">
        <ele>2060.328</ele>
        <time>2020-02-07T18:36:46.462Z</time>
      </trkpt>
      <trkpt lat="45.33545" lon="6.17669">
        <ele>2059</ele>
        <time>2020-02-07T18:36:48.463Z</time>
      </trkpt>
      <trkpt lat="45.33547" lon="6.17656">
        <ele>2058</ele>
        <time>2020-02-07T18:36:50.460Z</time>
      </trkpt>
      <trkpt lat="45.3355" lon="6.17643">
        <ele>2056.3260032</ele>
        <time>2020-02-07T18:36:52.464Z</time>
      </trkpt>
      <trkpt lat="45.33554" lon="6.1763">
        <ele>2055</ele>
        <time>2020-02-07T18:36:54.475Z</time>
      </trkpt>
      <trkpt lat="45.33559" lon="6.17617">
        <ele>2053.3270016</ele>
        <time>2020-02-07T18:36:56.463Z</time>
      </trkpt>
      <trkpt lat="45.33564" lon="6.17599">
        <ele>2051.4865647119</ele>
        <time>2020-02-07T18:36:59.478Z</time>
      </trkpt>
      <trkpt lat="45.33568" lon="6.17587">
        <ele>2050.3400064</ele>
        <time>2020-02-07T18:37:01.460Z</time>
      </trkpt>
      <trkpt lat="45.33574" lon="6.1757">
        <ele>2049.3170048</ele>
        <time>2020-02-07T18:37:04.473Z</time>
      </trkpt>
      <trkpt lat="45.33577" lon="6.17555">
        <ele>2048</ele>
        <time>2020-02-07T18:37:06.460Z</time>
      </trkpt>
      <trkpt lat="45.33582" lon="6.17542">
        <ele>2046.6441120369</ele>
        <time>2020-02-07T18:37:08.463Z</time>
      </trkpt>
      <trkpt lat="45.33584" lon="6.17528">
        <ele>2043.6599936</ele>
        <time>2020-02-07T18:37:10.460Z</time>
      </trkpt>
      <trkpt lat="45.33585" lon="6.17513">
        <ele>2042</ele>
        <time>2020-02-07T18:37:12.463Z</time>
      </trkpt>
      <trkpt lat="45.33586" lon="6.17495">
        <ele>2041.3219968</ele>
        <time>2020-02-07T18:37:14.478Z</time>
      </trkpt>
      <trkpt lat="45.33586" lon="6.17478">
        <ele>2039.3303035788</ele>
        <time>2020-02-07T18:37:16.463Z</time>
      </trkpt>
      <trkpt lat="45.33587" lon="6.17463">
        <ele>2037.4977599893</ele>
        <time>2020-02-07T18:37:18.463Z</time>
      </trkpt>
      <trkpt lat="45.33586" lon="6.17449">
        <ele>2036</ele>
        <time>2020-02-07T18:37:20.463Z</time>
      </trkpt>
      <trkpt lat="45.33583" lon="6.17436">
        <ele>2036</ele>
        <time>2020-02-07T18:37:22.463Z</time>
      </trkpt>
      <trkpt lat="45.3358" lon="6.17422">
        <ele>2034.3400064</ele>
        <time>2020-02-07T18:37:25.460Z</time>
      </trkpt>
      <trkpt lat="45.33579" lon="6.17407">
        <ele>2033.4739175602</ele>
        <time>2020-02-07T18:37:27.463Z</time>
      </trkpt>
      <trkpt lat="45.33579" lon="6.17387">
        <ele>2031.4977599893</ele>
        <time>2020-02-07T18:37:30.463Z</time>
      </trkpt>
      <trkpt lat="45.33579" lon="6.17374">
        <ele>2030</ele>
        <time>2020-02-07T18:37:32.463Z</time>
      </trkpt>
      <trkpt lat="45.3358" lon="6.17362">
        <ele>2028.3369984</ele>
        <time>2020-02-07T18:37:35.463Z</time>
      </trkpt>
      <trkpt lat="45.33581" lon="6.17348">
        <ele>2025.3202058337</ele>
        <time>2020-02-07T18:37:39.473Z</time>
      </trkpt>
      <trkpt lat="45.33574" lon="6.17356">
        <ele>2024</ele>
        <time>2020-02-07T18:38:51.463Z</time>
      </trkpt>
      <trkpt lat="45.33567" lon="6.17364">
        <ele>2024</ele>
        <time>2020-02-07T18:39:33.463Z</time>
      </trkpt>
      <trkpt lat="45.3356" lon="6.17373">
        <ele>2024</ele>
        <time>2020-02-07T18:39:46.463Z</time>
      </trkpt>
      <trkpt lat="45.33551" lon="6.17384">
        <ele>2023</ele>
        <time>2020-02-07T18:39:50.463Z</time>
      </trkpt>
      <trkpt lat="45.33542" lon="6.1739">
        <ele>2021</ele>
        <time>2020-02-07T18:39:53.463Z</time>
      </trkpt>
      <trkpt lat="45.33527" lon="6.17384">
        <ele>2013.3739472415</ele>
        <time>2020-02-07T18:39:59.474Z</time>
      </trkpt>
      <trkpt lat="45.33515" lon="6.17389">
        <ele>2010</ele>
        <time>2020-02-07T18:40:02.474Z</time>
      </trkpt>
      <trkpt lat="45.33506" lon="6.17392">
        <ele>2007.328</ele>
        <time>2020-02-07T18:40:05.462Z</time>
      </trkpt>
      <trkpt lat="45.33494" lon="6.17386">
        <ele>2003.3336729229</ele>
        <time>2020-02-07T18:40:09.463Z</time>
      </trkpt>
      <trkpt lat="45.33488" lon="6.17373">
        <ele>1999.3250048</ele>
        <time>2020-02-07T18:40:12.465Z</time>
      </trkpt>
      <trkpt lat="45.33494" lon="6.17362">
        <ele>1997.4947356264</ele>
        <time>2020-02-07T18:40:14.462Z</time>
      </trkpt>
      <trkpt lat="45.33499" lon="6.17346">
        <ele>1995.4909090909</ele>
        <time>2020-02-07T18:40:17.462Z</time>
      </trkpt>
      <trkpt lat="45.33503" lon="6.1733">
        <ele>1993.3313120604</ele>
        <time>2020-02-07T18:40:20.462Z</time>
      </trkpt>
      <trkpt lat="45.33506" lon="6.17318">
        <ele>1993</ele>
        <time>2020-02-07T18:40:22.463Z</time>
      </trkpt>
      <trkpt lat="45.33506" lon="6.17304">
        <ele>1992.4985050675</ele>
        <time>2020-02-07T18:40:24.462Z</time>
      </trkpt>
      <trkpt lat="45.33507" lon="6.1729">
        <ele>1989.328</ele>
        <time>2020-02-07T18:40:26.462Z</time>
      </trkpt>
      <trkpt lat="45.3351" lon="6.17273">
        <ele>1986.328</ele>
        <time>2020-02-07T18:40:29.462Z</time>
      </trkpt>
      <trkpt lat="45.33511" lon="6.17257">
        <ele>1985</ele>
        <time>2020-02-07T18:40:32.462Z</time>
      </trkpt>
      <trkpt lat="45.33514" lon="6.17238">
        <ele>1983.3346513573</ele>
        <time>2020-02-07T18:40:35.462Z</time>
      </trkpt>
      <trkpt lat="45.33516" lon="6.17224">
        <ele>1982.4710236337</ele>
        <time>2020-02-07T18:40:37.475Z</time>
      </trkpt>
      <trkpt lat="45.33518" lon="6.17205">
        <ele>1980</ele>
        <time>2020-02-07T18:40:40.474Z</time>
      </trkpt>
      <trkpt lat="45.3352" lon="6.17191">
        <ele>1979</ele>
        <time>2020-02-07T18:40:43.474Z</time>
      </trkpt>
      <trkpt lat="45.33522" lon="6.17178">
        <ele>1978</ele>
        <time>2020-02-07T18:40:46.474Z</time>
      </trkpt>
      <trkpt lat="45.33526" lon="6.17161">
        <ele>1978</ele>
        <time>2020-02-07T18:40:50.462Z</time>
      </trkpt>
      <trkpt lat="45.33531" lon="6.17146">
        <ele>1976.3229952</ele>
        <time>2020-02-07T18:40:53.477Z</time>
      </trkpt>
      <trkpt lat="45.33536" lon="6.1713">
        <ele>1974.4753557052</ele>
        <time>2020-02-07T18:40:56.462Z</time>
      </trkpt>
      <trkpt lat="45.33539" lon="6.17117">
        <ele>1973</ele>
        <time>2020-02-07T18:40:59.462Z</time>
      </trkpt>
      <trkpt lat="45.33539" lon="6.17102">
        <ele>1973</ele>
        <time>2020-02-07T18:41:03.472Z</time>
      </trkpt>
      <trkpt lat="45.3354" lon="6.17088">
        <ele>1971.5022520355</ele>
        <time>2020-02-07T18:41:06.462Z</time>
      </trkpt>
      <trkpt lat="45.33538" lon="6.17075">
        <ele>1969.3379968</ele>
        <time>2020-02-07T18:41:09.462Z</time>
      </trkpt>
      <trkpt lat="45.33529" lon="6.17073">
        <ele>1963.6320128</ele>
        <time>2020-02-07T18:41:13.474Z</time>
      </trkpt>
      <trkpt lat="45.33516" lon="6.17083">
        <ele>1961.4647152941</ele>
        <time>2020-02-07T18:41:15.474Z</time>
      </trkpt>
      <trkpt lat="45.33506" lon="6.17078">
        <ele>1957.9955199786</ele>
        <time>2020-02-07T18:41:18.463Z</time>
      </trkpt>
      <trkpt lat="45.33503" lon="6.1706">
        <ele>1954.3180032</ele>
        <time>2020-02-07T18:41:21.472Z</time>
      </trkpt>
      <trkpt lat="45.33499" lon="6.17044">
        <ele>1952.3270016</ele>
        <time>2020-02-07T18:41:23.463Z</time>
      </trkpt>
      <trkpt lat="45.33491" lon="6.17029">
        <ele>1949.3170048</ele>
        <time>2020-02-07T18:41:26.473Z</time>
      </trkpt>
      <trkpt lat="45.33483" lon="6.17024">
        <ele>1948</ele>
        <time>2020-02-07T18:41:53.575Z</time>
      </trkpt>
      <trkpt lat="45.33473" lon="6.17024">
        <ele>1948</ele>
        <time>2020-02-07T18:41:59.463Z</time>
      </trkpt>
      <trkpt lat="45.33465" lon="6.17015">
        <ele>1947</ele>
        <time>2020-02-07T18:42:02.473Z</time>
      </trkpt>
      <trkpt lat="45.33456" lon="6.1701">
        <ele>1944.6540032</ele>
        <time>2020-02-07T18:42:05.463Z</time>
      </trkpt>
      <trkpt lat="45.33447" lon="6.17008">
        <ele>1942.3140948849</ele>
        <time>2020-02-07T18:42:08.575Z</time>
      </trkpt>
      <trkpt lat="45.33457" lon="6.17011">
        <ele>1940</ele>
        <time>2020-02-07T18:42:48.463Z</time>
      </trkpt>
      <trkpt lat="45.33448" lon="6.17016">
        <ele>1940</ele>
        <time>2020-02-07T18:43:15.474Z</time>
      </trkpt>
      <trkpt lat="45.33447" lon="6.17015">
        <ele>1941</ele>
        <time>2020-02-07T18:43:41.474Z</time>
      </trkpt>
    </trkseg>
  </trk>
</gpx>